<?xml version="1.0" encoding="UTF-8" standalone="no" ?>
<gpx xmlns="http://www.topografix.com/GPX/1/1" xmlns:xsi="http://www.w3.org/2001/XMLSchema-instance" xsi:schemaLocation="http://www.topografix.com/GPX/1/1 http://www.topografix.com/GPX/1/1/gpx.xsd" version="1.1" creator="VisuGPX - https://www.visugpx.com">
  <metadata>
    <name>Layoule RODEZ</name>
    <desc><![CDATA[petit chemin menant au monastere]]></desc>
  </metadata>
  <trk>
    <name><![CDATA[layoule]]></name>
    <trkseg>
      <trkpt lat="44.35277" lon="2.57851">
        <ele>609</ele>
        <time>2011-12-27T09:16:38.000Z</time>
      </trkpt>
      <trkpt lat="44.35272" lon="2.57853">
        <ele>609.20001220703</ele>
        <time>2011-12-27T09:16:40.000Z</time>
      </trkpt>
      <trkpt lat="44.35266" lon="2.57855">
        <ele>609.59997558594</ele>
        <time>2011-12-27T09:16:42.000Z</time>
      </trkpt>
      <trkpt lat="44.35258" lon="2.57854">
        <ele>611.59997558594</ele>
        <time>2011-12-27T09:16:45.000Z</time>
      </trkpt>
      <trkpt lat="44.35255" lon="2.57854">
        <ele>612</ele>
        <time>2011-12-27T09:16:46.000Z</time>
      </trkpt>
      <trkpt lat="44.35246" lon="2.57858">
        <ele>612.40002441406</ele>
        <time>2011-12-27T09:16:50.000Z</time>
      </trkpt>
      <trkpt lat="44.35242" lon="2.57862">
        <ele>611.59997558594</ele>
        <time>2011-12-27T09:16:55.000Z</time>
      </trkpt>
      <trkpt lat="44.35245" lon="2.57862">
        <ele>611.20001220703</ele>
        <time>2011-12-27T09:16:59.000Z</time>
      </trkpt>
      <trkpt lat="44.3525" lon="2.57866">
        <ele>609</ele>
        <time>2011-12-27T09:17:04.000Z</time>
      </trkpt>
      <trkpt lat="44.35254" lon="2.57867">
        <ele>607.79998779297</ele>
        <time>2011-12-27T09:17:08.000Z</time>
      </trkpt>
      <trkpt lat="44.35255" lon="2.57868">
        <ele>607.40002441406</ele>
        <time>2011-12-27T09:17:09.000Z</time>
      </trkpt>
      <trkpt lat="44.35262" lon="2.57875">
        <ele>603.79998779297</ele>
        <time>2011-12-27T09:17:14.000Z</time>
      </trkpt>
      <trkpt lat="44.35267" lon="2.57889">
        <ele>598.20001220703</ele>
        <time>2011-12-27T09:17:20.000Z</time>
      </trkpt>
      <trkpt lat="44.35268" lon="2.5789">
        <ele>597.59997558594</ele>
        <time>2011-12-27T09:17:21.000Z</time>
      </trkpt>
      <trkpt lat="44.3527" lon="2.57893">
        <ele>596</ele>
        <time>2011-12-27T09:17:24.000Z</time>
      </trkpt>
      <trkpt lat="44.35275" lon="2.57895">
        <ele>594.40002441406</ele>
        <time>2011-12-27T09:17:27.000Z</time>
      </trkpt>
      <trkpt lat="44.35278" lon="2.57896">
        <ele>593.59997558594</ele>
        <time>2011-12-27T09:17:29.000Z</time>
      </trkpt>
      <trkpt lat="44.35288" lon="2.57892">
        <ele>592.79998779297</ele>
        <time>2011-12-27T09:17:35.000Z</time>
      </trkpt>
      <trkpt lat="44.35301" lon="2.57898">
        <ele>588.59997558594</ele>
        <time>2011-12-27T09:17:40.000Z</time>
      </trkpt>
      <trkpt lat="44.35302" lon="2.579">
        <ele>587.79998779297</ele>
        <time>2011-12-27T09:17:41.000Z</time>
      </trkpt>
      <trkpt lat="44.35307" lon="2.57903">
        <ele>585.40002441406</ele>
        <time>2011-12-27T09:17:45.000Z</time>
      </trkpt>
      <trkpt lat="44.35308" lon="2.57905">
        <ele>584.59997558594</ele>
        <time>2011-12-27T09:17:46.000Z</time>
      </trkpt>
      <trkpt lat="44.35313" lon="2.57909">
        <ele>582.40002441406</ele>
        <time>2011-12-27T09:17:51.000Z</time>
      </trkpt>
      <trkpt lat="44.35315" lon="2.57914">
        <ele>580.40002441406</ele>
        <time>2011-12-27T09:17:55.000Z</time>
      </trkpt>
      <trkpt lat="44.35314" lon="2.57919">
        <ele>579.20001220703</ele>
        <time>2011-12-27T09:17:59.000Z</time>
      </trkpt>
      <trkpt lat="44.35314" lon="2.57921">
        <ele>578.59997558594</ele>
        <time>2011-12-27T09:18:00.000Z</time>
      </trkpt>
      <trkpt lat="44.35313" lon="2.57925">
        <ele>577.59997558594</ele>
        <time>2011-12-27T09:18:03.000Z</time>
      </trkpt>
      <trkpt lat="44.35313" lon="2.57926">
        <ele>577.20001220703</ele>
        <time>2011-12-27T09:18:04.000Z</time>
      </trkpt>
      <trkpt lat="44.35315" lon="2.5793">
        <ele>575.40002441406</ele>
        <time>2011-12-27T09:18:09.000Z</time>
      </trkpt>
      <trkpt lat="44.35316" lon="2.57932">
        <ele>574.79998779297</ele>
        <time>2011-12-27T09:18:10.000Z</time>
      </trkpt>
      <trkpt lat="44.35315" lon="2.57936">
        <ele>573.79998779297</ele>
        <time>2011-12-27T09:18:12.000Z</time>
      </trkpt>
      <trkpt lat="44.35316" lon="2.57937">
        <ele>573.20001220703</ele>
        <time>2011-12-27T09:18:14.000Z</time>
      </trkpt>
      <trkpt lat="44.35316" lon="2.57938">
        <ele>573</ele>
        <time>2011-12-27T09:18:15.000Z</time>
      </trkpt>
      <trkpt lat="44.35316" lon="2.57941">
        <ele>572</ele>
        <time>2011-12-27T09:18:19.000Z</time>
      </trkpt>
      <trkpt lat="44.35314" lon="2.57946">
        <ele>571</ele>
        <time>2011-12-27T09:18:21.000Z</time>
      </trkpt>
      <trkpt lat="44.35311" lon="2.57948">
        <ele>570.79998779297</ele>
        <time>2011-12-27T09:18:23.000Z</time>
      </trkpt>
      <trkpt lat="44.35311" lon="2.5795">
        <ele>570.40002441406</ele>
        <time>2011-12-27T09:18:25.000Z</time>
      </trkpt>
      <trkpt lat="44.3531" lon="2.57951">
        <ele>570.20001220703</ele>
        <time>2011-12-27T09:18:26.000Z</time>
      </trkpt>
      <trkpt lat="44.35313" lon="2.57952">
        <ele>569.20001220703</ele>
        <time>2011-12-27T09:18:31.000Z</time>
      </trkpt>
      <trkpt lat="44.35316" lon="2.57951">
        <ele>568.79998779297</ele>
        <time>2011-12-27T09:18:37.000Z</time>
      </trkpt>
      <trkpt lat="44.35323" lon="2.5795">
        <ele>568.20001220703</ele>
        <time>2011-12-27T09:18:46.000Z</time>
      </trkpt>
      <trkpt lat="44.35328" lon="2.5795">
        <ele>567.20001220703</ele>
        <time>2011-12-27T09:18:50.000Z</time>
      </trkpt>
      <trkpt lat="44.35331" lon="2.57951">
        <ele>566.20001220703</ele>
        <time>2011-12-27T09:18:54.000Z</time>
      </trkpt>
      <trkpt lat="44.35337" lon="2.57956">
        <ele>564</ele>
        <time>2011-12-27T09:19:00.000Z</time>
      </trkpt>
      <trkpt lat="44.35336" lon="2.57958">
        <ele>563.40002441406</ele>
        <time>2011-12-27T09:19:05.000Z</time>
      </trkpt>
      <trkpt lat="44.35342" lon="2.57965">
        <ele>561</ele>
        <time>2011-12-27T09:19:17.000Z</time>
      </trkpt>
      <trkpt lat="44.35345" lon="2.57967">
        <ele>560.20001220703</ele>
        <time>2011-12-27T09:19:20.000Z</time>
      </trkpt>
      <trkpt lat="44.35348" lon="2.57968">
        <ele>559.79998779297</ele>
        <time>2011-12-27T09:19:24.000Z</time>
      </trkpt>
      <trkpt lat="44.35356" lon="2.57973">
        <ele>558.20001220703</ele>
        <time>2011-12-27T09:19:36.000Z</time>
      </trkpt>
      <trkpt lat="44.35368" lon="2.57982">
        <ele>555.20001220703</ele>
        <time>2011-12-27T09:19:43.000Z</time>
      </trkpt>
      <trkpt lat="44.35372" lon="2.57985">
        <ele>554.20001220703</ele>
        <time>2011-12-27T09:19:46.000Z</time>
      </trkpt>
      <trkpt lat="44.35374" lon="2.57986">
        <ele>554.20001220703</ele>
        <time>2011-12-27T09:19:47.000Z</time>
      </trkpt>
      <trkpt lat="44.35379" lon="2.57988">
        <ele>553.40002441406</ele>
        <time>2011-12-27T09:19:52.000Z</time>
      </trkpt>
      <trkpt lat="44.35381" lon="2.57993">
        <ele>552</ele>
        <time>2011-12-27T09:19:55.000Z</time>
      </trkpt>
      <trkpt lat="44.35383" lon="2.58001">
        <ele>550.20001220703</ele>
        <time>2011-12-27T09:19:58.000Z</time>
      </trkpt>
      <trkpt lat="44.35384" lon="2.58017">
        <ele>547.20001220703</ele>
        <time>2011-12-27T09:20:02.000Z</time>
      </trkpt>
      <trkpt lat="44.35384" lon="2.58021">
        <ele>546.40002441406</ele>
        <time>2011-12-27T09:20:03.000Z</time>
      </trkpt>
      <trkpt lat="44.35384" lon="2.58039">
        <ele>543</ele>
        <time>2011-12-27T09:20:08.000Z</time>
      </trkpt>
      <trkpt lat="44.35386" lon="2.58064">
        <ele>538.40002441406</ele>
        <time>2011-12-27T09:20:14.000Z</time>
      </trkpt>
      <trkpt lat="44.35389" lon="2.58084">
        <ele>535</ele>
        <time>2011-12-27T09:20:18.000Z</time>
      </trkpt>
      <trkpt lat="44.35385" lon="2.58101">
        <ele>534.20001220703</ele>
        <time>2011-12-27T09:20:22.000Z</time>
      </trkpt>
      <trkpt lat="44.35379" lon="2.58107">
        <ele>533.40002441406</ele>
        <time>2011-12-27T09:20:25.000Z</time>
      </trkpt>
      <trkpt lat="44.35372" lon="2.58106">
        <ele>533</ele>
        <time>2011-12-27T09:20:27.000Z</time>
      </trkpt>
      <trkpt lat="44.35354" lon="2.58111">
        <ele>531.59997558594</ele>
        <time>2011-12-27T09:20:34.000Z</time>
      </trkpt>
      <trkpt lat="44.35343" lon="2.58114">
        <ele>530.59997558594</ele>
        <time>2011-12-27T09:20:39.000Z</time>
      </trkpt>
      <trkpt lat="44.35333" lon="2.58121">
        <ele>529.59997558594</ele>
        <time>2011-12-27T09:20:44.000Z</time>
      </trkpt>
      <trkpt lat="44.35322" lon="2.58125">
        <ele>530</ele>
        <time>2011-12-27T09:20:49.000Z</time>
      </trkpt>
      <trkpt lat="44.35312" lon="2.58133">
        <ele>530</ele>
        <time>2011-12-27T09:20:54.000Z</time>
      </trkpt>
      <trkpt lat="44.35307" lon="2.58145">
        <ele>529.59997558594</ele>
        <time>2011-12-27T09:20:58.000Z</time>
      </trkpt>
      <trkpt lat="44.35302" lon="2.58158">
        <ele>529.20001220703</ele>
        <time>2011-12-27T09:21:03.000Z</time>
      </trkpt>
      <trkpt lat="44.3529" lon="2.58163">
        <ele>529.20001220703</ele>
        <time>2011-12-27T09:21:08.000Z</time>
      </trkpt>
      <trkpt lat="44.35278" lon="2.58172">
        <ele>529.59997558594</ele>
        <time>2011-12-27T09:21:14.000Z</time>
      </trkpt>
      <trkpt lat="44.35269" lon="2.58172">
        <ele>529.79998779297</ele>
        <time>2011-12-27T09:21:18.000Z</time>
      </trkpt>
      <trkpt lat="44.35261" lon="2.58167">
        <ele>529.79998779297</ele>
        <time>2011-12-27T09:21:22.000Z</time>
      </trkpt>
      <trkpt lat="44.35251" lon="2.5817">
        <ele>530.20001220703</ele>
        <time>2011-12-27T09:21:27.000Z</time>
      </trkpt>
      <trkpt lat="44.35246" lon="2.58179">
        <ele>530.79998779297</ele>
        <time>2011-12-27T09:21:32.000Z</time>
      </trkpt>
      <trkpt lat="44.3525" lon="2.58188">
        <ele>531.59997558594</ele>
        <time>2011-12-27T09:21:36.000Z</time>
      </trkpt>
      <trkpt lat="44.35257" lon="2.58196">
        <ele>531.79998779297</ele>
        <time>2011-12-27T09:21:41.000Z</time>
      </trkpt>
      <trkpt lat="44.35263" lon="2.58205">
        <ele>532</ele>
        <time>2011-12-27T09:21:46.000Z</time>
      </trkpt>
      <trkpt lat="44.35264" lon="2.58207">
        <ele>532</ele>
        <time>2011-12-27T09:21:47.000Z</time>
      </trkpt>
      <trkpt lat="44.35264" lon="2.5822">
        <ele>532.79998779297</ele>
        <time>2011-12-27T09:21:52.000Z</time>
      </trkpt>
      <trkpt lat="44.35262" lon="2.58221">
        <ele>533</ele>
        <time>2011-12-27T09:21:53.000Z</time>
      </trkpt>
      <trkpt lat="44.35246" lon="2.58224">
        <ele>534</ele>
        <time>2011-12-27T09:21:58.000Z</time>
      </trkpt>
      <trkpt lat="44.35233" lon="2.58227">
        <ele>534</ele>
        <time>2011-12-27T09:22:03.000Z</time>
      </trkpt>
      <trkpt lat="44.35233" lon="2.5823">
        <ele>534.20001220703</ele>
        <time>2011-12-27T09:22:04.000Z</time>
      </trkpt>
      <trkpt lat="44.35231" lon="2.58239">
        <ele>534.79998779297</ele>
        <time>2011-12-27T09:22:07.000Z</time>
      </trkpt>
      <trkpt lat="44.35229" lon="2.58242">
        <ele>535</ele>
        <time>2011-12-27T09:22:09.000Z</time>
      </trkpt>
      <trkpt lat="44.35222" lon="2.58253">
        <ele>535.40002441406</ele>
        <time>2011-12-27T09:22:14.000Z</time>
      </trkpt>
      <trkpt lat="44.35215" lon="2.58264">
        <ele>535.59997558594</ele>
        <time>2011-12-27T09:22:19.000Z</time>
      </trkpt>
      <trkpt lat="44.35215" lon="2.5827">
        <ele>535.79998779297</ele>
        <time>2011-12-27T09:22:22.000Z</time>
      </trkpt>
      <trkpt lat="44.35215" lon="2.58275">
        <ele>535.79998779297</ele>
        <time>2011-12-27T09:22:24.000Z</time>
      </trkpt>
      <trkpt lat="44.35216" lon="2.58287">
        <ele>536.20001220703</ele>
        <time>2011-12-27T09:22:29.000Z</time>
      </trkpt>
      <trkpt lat="44.35213" lon="2.58299">
        <ele>536.59997558594</ele>
        <time>2011-12-27T09:22:34.000Z</time>
      </trkpt>
      <trkpt lat="44.35209" lon="2.58307">
        <ele>537.40002441406</ele>
        <time>2011-12-27T09:22:38.000Z</time>
      </trkpt>
      <trkpt lat="44.35207" lon="2.58306">
        <ele>537.40002441406</ele>
        <time>2011-12-27T09:22:39.000Z</time>
      </trkpt>
      <trkpt lat="44.35203" lon="2.58298">
        <ele>537.40002441406</ele>
        <time>2011-12-27T09:22:43.000Z</time>
      </trkpt>
      <trkpt lat="44.35197" lon="2.5829">
        <ele>537.40002441406</ele>
        <time>2011-12-27T09:22:48.000Z</time>
      </trkpt>
      <trkpt lat="44.35199" lon="2.5829">
        <ele>537.20001220703</ele>
        <time>2011-12-27T09:22:54.000Z</time>
      </trkpt>
      <trkpt lat="44.35192" lon="2.58288">
        <ele>537.59997558594</ele>
        <time>2011-12-27T09:22:58.000Z</time>
      </trkpt>
      <trkpt lat="44.35185" lon="2.58286">
        <ele>537.79998779297</ele>
        <time>2011-12-27T09:23:03.000Z</time>
      </trkpt>
      <trkpt lat="44.35174" lon="2.58287">
        <ele>538.40002441406</ele>
        <time>2011-12-27T09:23:10.000Z</time>
      </trkpt>
      <trkpt lat="44.35172" lon="2.58289">
        <ele>538.79998779297</ele>
        <time>2011-12-27T09:23:11.000Z</time>
      </trkpt>
      <trkpt lat="44.35156" lon="2.58304">
        <ele>540.40002441406</ele>
        <time>2011-12-27T09:23:19.000Z</time>
      </trkpt>
      <trkpt lat="44.35144" lon="2.58311">
        <ele>540.59997558594</ele>
        <time>2011-12-27T09:23:25.000Z</time>
      </trkpt>
      <trkpt lat="44.35133" lon="2.58323">
        <ele>541.40002441406</ele>
        <time>2011-12-27T09:23:31.000Z</time>
      </trkpt>
      <trkpt lat="44.35124" lon="2.58337">
        <ele>542.40002441406</ele>
        <time>2011-12-27T09:23:36.000Z</time>
      </trkpt>
      <trkpt lat="44.35118" lon="2.58344">
        <ele>543.59997558594</ele>
        <time>2011-12-27T09:23:40.000Z</time>
      </trkpt>
      <trkpt lat="44.35108" lon="2.58354">
        <ele>545</ele>
        <time>2011-12-27T09:23:45.000Z</time>
      </trkpt>
      <trkpt lat="44.35102" lon="2.5836">
        <ele>546.40002441406</ele>
        <time>2011-12-27T09:23:48.000Z</time>
      </trkpt>
      <trkpt lat="44.35096" lon="2.58364">
        <ele>547.59997558594</ele>
        <time>2011-12-27T09:23:51.000Z</time>
      </trkpt>
      <trkpt lat="44.35083" lon="2.58365">
        <ele>548.20001220703</ele>
        <time>2011-12-27T09:23:56.000Z</time>
      </trkpt>
      <trkpt lat="44.35076" lon="2.58366">
        <ele>548</ele>
        <time>2011-12-27T09:23:59.000Z</time>
      </trkpt>
      <trkpt lat="44.35072" lon="2.58369">
        <ele>548.59997558594</ele>
        <time>2011-12-27T09:24:01.000Z</time>
      </trkpt>
      <trkpt lat="44.35057" lon="2.58376">
        <ele>549.40002441406</ele>
        <time>2011-12-27T09:24:07.000Z</time>
      </trkpt>
      <trkpt lat="44.35044" lon="2.58377">
        <ele>548.79998779297</ele>
        <time>2011-12-27T09:24:13.000Z</time>
      </trkpt>
      <trkpt lat="44.3504" lon="2.58379">
        <ele>549</ele>
        <time>2011-12-27T09:24:17.000Z</time>
      </trkpt>
      <trkpt lat="44.3503" lon="2.58374">
        <ele>547</ele>
        <time>2011-12-27T09:24:22.000Z</time>
      </trkpt>
      <trkpt lat="44.35023" lon="2.58379">
        <ele>548</ele>
        <time>2011-12-27T09:24:26.000Z</time>
      </trkpt>
      <trkpt lat="44.35022" lon="2.58382">
        <ele>548.59997558594</ele>
        <time>2011-12-27T09:24:27.000Z</time>
      </trkpt>
      <trkpt lat="44.35011" lon="2.58393">
        <ele>551.40002441406</ele>
        <time>2011-12-27T09:24:33.000Z</time>
      </trkpt>
      <trkpt lat="44.35002" lon="2.58397">
        <ele>552</ele>
        <time>2011-12-27T09:24:38.000Z</time>
      </trkpt>
      <trkpt lat="44.34987" lon="2.58398">
        <ele>550.79998779297</ele>
        <time>2011-12-27T09:24:43.000Z</time>
      </trkpt>
      <trkpt lat="44.34976" lon="2.58403">
        <ele>550.79998779297</ele>
        <time>2011-12-27T09:24:49.000Z</time>
      </trkpt>
      <trkpt lat="44.34971" lon="2.58403">
        <ele>550.40002441406</ele>
        <time>2011-12-27T09:24:51.000Z</time>
      </trkpt>
      <trkpt lat="44.3496" lon="2.58401">
        <ele>548.40002441406</ele>
        <time>2011-12-27T09:24:54.000Z</time>
      </trkpt>
      <trkpt lat="44.34957" lon="2.58401">
        <ele>548.20001220703</ele>
        <time>2011-12-27T09:24:55.000Z</time>
      </trkpt>
      <trkpt lat="44.34947" lon="2.58401">
        <ele>547</ele>
        <time>2011-12-27T09:24:59.000Z</time>
      </trkpt>
      <trkpt lat="44.34937" lon="2.58399">
        <ele>545.59997558594</ele>
        <time>2011-12-27T09:25:03.000Z</time>
      </trkpt>
      <trkpt lat="44.3493" lon="2.58398">
        <ele>544.59997558594</ele>
        <time>2011-12-27T09:25:08.000Z</time>
      </trkpt>
      <trkpt lat="44.34924" lon="2.58398">
        <ele>543.79998779297</ele>
        <time>2011-12-27T09:25:12.000Z</time>
      </trkpt>
      <trkpt lat="44.34919" lon="2.58398">
        <ele>543.40002441406</ele>
        <time>2011-12-27T09:25:16.000Z</time>
      </trkpt>
      <trkpt lat="44.34917" lon="2.58401">
        <ele>543.59997558594</ele>
        <time>2011-12-27T09:25:20.000Z</time>
      </trkpt>
      <trkpt lat="44.34915" lon="2.58401">
        <ele>543.59997558594</ele>
        <time>2011-12-27T09:25:21.000Z</time>
      </trkpt>
      <trkpt lat="44.3491" lon="2.58403">
        <ele>544</ele>
        <time>2011-12-27T09:25:24.000Z</time>
      </trkpt>
      <trkpt lat="44.34909" lon="2.58407">
        <ele>544.79998779297</ele>
        <time>2011-12-27T09:25:27.000Z</time>
      </trkpt>
      <trkpt lat="44.34905" lon="2.58407">
        <ele>545</ele>
        <time>2011-12-27T09:25:29.000Z</time>
      </trkpt>
      <trkpt lat="44.34901" lon="2.5841">
        <ele>545.59997558594</ele>
        <time>2011-12-27T09:25:36.000Z</time>
      </trkpt>
      <trkpt lat="44.34897" lon="2.58407">
        <ele>545.40002441406</ele>
        <time>2011-12-27T09:25:38.000Z</time>
      </trkpt>
      <trkpt lat="44.34896" lon="2.58406">
        <ele>545</ele>
        <time>2011-12-27T09:25:41.000Z</time>
      </trkpt>
      <trkpt lat="44.3489" lon="2.58398">
        <ele>544</ele>
        <time>2011-12-27T09:25:45.000Z</time>
      </trkpt>
      <trkpt lat="44.34885" lon="2.58394">
        <ele>543.40002441406</ele>
        <time>2011-12-27T09:25:48.000Z</time>
      </trkpt>
      <trkpt lat="44.34884" lon="2.58393">
        <ele>543.20001220703</ele>
        <time>2011-12-27T09:25:49.000Z</time>
      </trkpt>
      <trkpt lat="44.34882" lon="2.58393">
        <ele>543.20001220703</ele>
        <time>2011-12-27T09:25:52.000Z</time>
      </trkpt>
      <trkpt lat="44.34882" lon="2.58391">
        <ele>543</ele>
        <time>2011-12-27T09:25:55.000Z</time>
      </trkpt>
      <trkpt lat="44.34886" lon="2.58394">
        <ele>543.20001220703</ele>
        <time>2011-12-27T09:25:57.000Z</time>
      </trkpt>
      <trkpt lat="44.34888" lon="2.58394">
        <ele>543.40002441406</ele>
        <time>2011-12-27T09:25:59.000Z</time>
      </trkpt>
      <trkpt lat="44.34887" lon="2.58396">
        <ele>543.59997558594</ele>
        <time>2011-12-27T09:26:03.000Z</time>
      </trkpt>
      <trkpt lat="44.34888" lon="2.58396">
        <ele>543.59997558594</ele>
        <time>2011-12-27T09:26:06.000Z</time>
      </trkpt>
      <trkpt lat="44.34886" lon="2.58395">
        <ele>543.59997558594</ele>
        <time>2011-12-27T09:26:07.000Z</time>
      </trkpt>
      <trkpt lat="44.34888" lon="2.58399">
        <ele>544.20001220703</ele>
        <time>2011-12-27T09:26:10.000Z</time>
      </trkpt>
      <trkpt lat="44.34896" lon="2.58411">
        <ele>546</ele>
        <time>2011-12-27T09:26:16.000Z</time>
      </trkpt>
      <trkpt lat="44.349" lon="2.58417">
        <ele>547</ele>
        <time>2011-12-27T09:26:21.000Z</time>
      </trkpt>
      <trkpt lat="44.34898" lon="2.58417">
        <ele>547</ele>
        <time>2011-12-27T09:26:22.000Z</time>
      </trkpt>
      <trkpt lat="44.34895" lon="2.58414">
        <ele>546.59997558594</ele>
        <time>2011-12-27T09:26:24.000Z</time>
      </trkpt>
      <trkpt lat="44.34893" lon="2.58412">
        <ele>546.40002441406</ele>
        <time>2011-12-27T09:26:26.000Z</time>
      </trkpt>
      <trkpt lat="44.3489" lon="2.58411">
        <ele>546.20001220703</ele>
        <time>2011-12-27T09:26:37.000Z</time>
      </trkpt>
      <trkpt lat="44.34893" lon="2.58409">
        <ele>545.79998779297</ele>
        <time>2011-12-27T09:26:40.000Z</time>
      </trkpt>
      <trkpt lat="44.34901" lon="2.58408">
        <ele>545.20001220703</ele>
        <time>2011-12-27T09:26:43.000Z</time>
      </trkpt>
      <trkpt lat="44.34905" lon="2.58405">
        <ele>544.59997558594</ele>
        <time>2011-12-27T09:26:47.000Z</time>
      </trkpt>
      <trkpt lat="44.34903" lon="2.58403">
        <ele>544.40002441406</ele>
        <time>2011-12-27T09:26:48.000Z</time>
      </trkpt>
      <trkpt lat="44.34894" lon="2.58396">
        <ele>543.40002441406</ele>
        <time>2011-12-27T09:26:50.000Z</time>
      </trkpt>
      <trkpt lat="44.34889" lon="2.58394">
        <ele>543.20001220703</ele>
        <time>2011-12-27T09:26:53.000Z</time>
      </trkpt>
      <trkpt lat="44.34889" lon="2.58395">
        <ele>543.40002441406</ele>
        <time>2011-12-27T09:26:54.000Z</time>
      </trkpt>
      <trkpt lat="44.34881" lon="2.58393">
        <ele>543.20001220703</ele>
        <time>2011-12-27T09:26:59.000Z</time>
      </trkpt>
      <trkpt lat="44.34868" lon="2.58393">
        <ele>543.79998779297</ele>
        <time>2011-12-27T09:27:04.000Z</time>
      </trkpt>
      <trkpt lat="44.34868" lon="2.58396">
        <ele>544.20001220703</ele>
        <time>2011-12-27T09:27:07.000Z</time>
      </trkpt>
      <trkpt lat="44.34859" lon="2.5839">
        <ele>543.20001220703</ele>
        <time>2011-12-27T09:27:11.000Z</time>
      </trkpt>
      <trkpt lat="44.34856" lon="2.58387">
        <ele>542.79998779297</ele>
        <time>2011-12-27T09:27:12.000Z</time>
      </trkpt>
      <trkpt lat="44.34853" lon="2.58388">
        <ele>543</ele>
        <time>2011-12-27T09:27:13.000Z</time>
      </trkpt>
      <trkpt lat="44.34846" lon="2.58388">
        <ele>543.20001220703</ele>
        <time>2011-12-27T09:27:16.000Z</time>
      </trkpt>
      <trkpt lat="44.34836" lon="2.58383">
        <ele>542.20001220703</ele>
        <time>2011-12-27T09:27:21.000Z</time>
      </trkpt>
      <trkpt lat="44.34829" lon="2.5838">
        <ele>542</ele>
        <time>2011-12-27T09:27:26.000Z</time>
      </trkpt>
      <trkpt lat="44.34818" lon="2.58378">
        <ele>542.20001220703</ele>
        <time>2011-12-27T09:27:31.000Z</time>
      </trkpt>
      <trkpt lat="44.34798" lon="2.58368">
        <ele>540.79998779297</ele>
        <time>2011-12-27T09:27:37.000Z</time>
      </trkpt>
      <trkpt lat="44.34791" lon="2.58364">
        <ele>540.20001220703</ele>
        <time>2011-12-27T09:27:41.000Z</time>
      </trkpt>
      <trkpt lat="44.3479" lon="2.58365">
        <ele>540.59997558594</ele>
        <time>2011-12-27T09:27:43.000Z</time>
      </trkpt>
      <trkpt lat="44.34781" lon="2.58363">
        <ele>540.40002441406</ele>
        <time>2011-12-27T09:27:46.000Z</time>
      </trkpt>
      <trkpt lat="44.34772" lon="2.5836">
        <ele>539.79998779297</ele>
        <time>2011-12-27T09:27:51.000Z</time>
      </trkpt>
      <trkpt lat="44.34768" lon="2.5836">
        <ele>540</ele>
        <time>2011-12-27T09:27:53.000Z</time>
      </trkpt>
      <trkpt lat="44.34765" lon="2.58358">
        <ele>539.59997558594</ele>
        <time>2011-12-27T09:27:55.000Z</time>
      </trkpt>
      <trkpt lat="44.34756" lon="2.5835">
        <ele>537.40002441406</ele>
        <time>2011-12-27T09:28:00.000Z</time>
      </trkpt>
      <trkpt lat="44.34744" lon="2.58344">
        <ele>537</ele>
        <time>2011-12-27T09:28:05.000Z</time>
      </trkpt>
      <trkpt lat="44.3473" lon="2.58335">
        <ele>537.40002441406</ele>
        <time>2011-12-27T09:28:11.000Z</time>
      </trkpt>
      <trkpt lat="44.34722" lon="2.58327">
        <ele>538.20001220703</ele>
        <time>2011-12-27T09:28:15.000Z</time>
      </trkpt>
      <trkpt lat="44.34709" lon="2.58314">
        <ele>539.20001220703</ele>
        <time>2011-12-27T09:28:22.000Z</time>
      </trkpt>
      <trkpt lat="44.34701" lon="2.58308">
        <ele>539.59997558594</ele>
        <time>2011-12-27T09:28:26.000Z</time>
      </trkpt>
      <trkpt lat="44.347" lon="2.58306">
        <ele>539.59997558594</ele>
        <time>2011-12-27T09:28:27.000Z</time>
      </trkpt>
      <trkpt lat="44.3469" lon="2.58301">
        <ele>540</ele>
        <time>2011-12-27T09:28:31.000Z</time>
      </trkpt>
      <trkpt lat="44.34688" lon="2.58299">
        <ele>539.79998779297</ele>
        <time>2011-12-27T09:28:32.000Z</time>
      </trkpt>
      <trkpt lat="44.34679" lon="2.5829">
        <ele>538.79998779297</ele>
        <time>2011-12-27T09:28:37.000Z</time>
      </trkpt>
      <trkpt lat="44.34673" lon="2.58287">
        <ele>538.79998779297</ele>
        <time>2011-12-27T09:28:40.000Z</time>
      </trkpt>
      <trkpt lat="44.34669" lon="2.58285">
        <ele>538.59997558594</ele>
        <time>2011-12-27T09:28:42.000Z</time>
      </trkpt>
      <trkpt lat="44.34657" lon="2.58277">
        <ele>538</ele>
        <time>2011-12-27T09:28:48.000Z</time>
      </trkpt>
      <trkpt lat="44.34644" lon="2.58269">
        <ele>537.79998779297</ele>
        <time>2011-12-27T09:28:54.000Z</time>
      </trkpt>
      <trkpt lat="44.34636" lon="2.58266">
        <ele>537.79998779297</ele>
        <time>2011-12-27T09:28:59.000Z</time>
      </trkpt>
      <trkpt lat="44.34634" lon="2.58264">
        <ele>537.59997558594</ele>
        <time>2011-12-27T09:29:02.000Z</time>
      </trkpt>
      <trkpt lat="44.34631" lon="2.58265">
        <ele>538.40002441406</ele>
        <time>2011-12-27T09:29:05.000Z</time>
      </trkpt>
      <trkpt lat="44.34623" lon="2.5826">
        <ele>538</ele>
        <time>2011-12-27T09:29:10.000Z</time>
      </trkpt>
      <trkpt lat="44.3461" lon="2.58253">
        <ele>536.79998779297</ele>
        <time>2011-12-27T09:29:16.000Z</time>
      </trkpt>
      <trkpt lat="44.34602" lon="2.58241">
        <ele>536.40002441406</ele>
        <time>2011-12-27T09:29:21.000Z</time>
      </trkpt>
      <trkpt lat="44.34595" lon="2.58231">
        <ele>536.59997558594</ele>
        <time>2011-12-27T09:29:26.000Z</time>
      </trkpt>
      <trkpt lat="44.34591" lon="2.58228">
        <ele>536.79998779297</ele>
        <time>2011-12-27T09:29:30.000Z</time>
      </trkpt>
      <trkpt lat="44.34583" lon="2.58228">
        <ele>537.59997558594</ele>
        <time>2011-12-27T09:29:34.000Z</time>
      </trkpt>
      <trkpt lat="44.3458" lon="2.58236">
        <ele>538.59997558594</ele>
        <time>2011-12-27T09:29:39.000Z</time>
      </trkpt>
      <trkpt lat="44.34581" lon="2.58244">
        <ele>539.20001220703</ele>
        <time>2011-12-27T09:29:44.000Z</time>
      </trkpt>
      <trkpt lat="44.3458" lon="2.58245">
        <ele>539.40002441406</ele>
        <time>2011-12-27T09:29:46.000Z</time>
      </trkpt>
      <trkpt lat="44.34577" lon="2.58248">
        <ele>540.59997558594</ele>
        <time>2011-12-27T09:29:49.000Z</time>
      </trkpt>
      <trkpt lat="44.34573" lon="2.58246">
        <ele>541.40002441406</ele>
        <time>2011-12-27T09:29:52.000Z</time>
      </trkpt>
      <trkpt lat="44.34571" lon="2.58247">
        <ele>541.79998779297</ele>
        <time>2011-12-27T09:29:53.000Z</time>
      </trkpt>
      <trkpt lat="44.34564" lon="2.58243">
        <ele>543.40002441406</ele>
        <time>2011-12-27T09:29:58.000Z</time>
      </trkpt>
      <trkpt lat="44.34559" lon="2.5824">
        <ele>544.20001220703</ele>
        <time>2011-12-27T09:30:03.000Z</time>
      </trkpt>
      <trkpt lat="44.34555" lon="2.5824">
        <ele>545</ele>
        <time>2011-12-27T09:30:06.000Z</time>
      </trkpt>
      <trkpt lat="44.34554" lon="2.58238">
        <ele>545</ele>
        <time>2011-12-27T09:30:07.000Z</time>
      </trkpt>
      <trkpt lat="44.34554" lon="2.58238">
        <ele>545</ele>
        <time>2011-12-27T09:30:08.000Z</time>
      </trkpt>
      <trkpt lat="44.34548" lon="2.58232">
        <ele>545.40002441406</ele>
        <time>2011-12-27T09:30:13.000Z</time>
      </trkpt>
      <trkpt lat="44.34544" lon="2.58226">
        <ele>545.59997558594</ele>
        <time>2011-12-27T09:30:16.000Z</time>
      </trkpt>
      <trkpt lat="44.34541" lon="2.58225">
        <ele>546</ele>
        <time>2011-12-27T09:30:18.000Z</time>
      </trkpt>
      <trkpt lat="44.34536" lon="2.58222">
        <ele>546.40002441406</ele>
        <time>2011-12-27T09:30:24.000Z</time>
      </trkpt>
      <trkpt lat="44.34536" lon="2.58222">
        <ele>546.59997558594</ele>
        <time>2011-12-27T09:30:25.000Z</time>
      </trkpt>
      <trkpt lat="44.34534" lon="2.58224">
        <ele>547.40002441406</ele>
        <time>2011-12-27T09:30:27.000Z</time>
      </trkpt>
      <trkpt lat="44.34533" lon="2.58224">
        <ele>547.59997558594</ele>
        <time>2011-12-27T09:30:31.000Z</time>
      </trkpt>
      <trkpt lat="44.34529" lon="2.5822">
        <ele>547.79998779297</ele>
        <time>2011-12-27T09:30:36.000Z</time>
      </trkpt>
      <trkpt lat="44.34527" lon="2.58219">
        <ele>547.79998779297</ele>
        <time>2011-12-27T09:30:37.000Z</time>
      </trkpt>
      <trkpt lat="44.3452" lon="2.58218">
        <ele>549</ele>
        <time>2011-12-27T09:30:42.000Z</time>
      </trkpt>
      <trkpt lat="44.34518" lon="2.58216">
        <ele>548.79998779297</ele>
        <time>2011-12-27T09:30:44.000Z</time>
      </trkpt>
      <trkpt lat="44.34517" lon="2.58215">
        <ele>549</ele>
        <time>2011-12-27T09:30:45.000Z</time>
      </trkpt>
      <trkpt lat="44.34514" lon="2.58212">
        <ele>548.79998779297</ele>
        <time>2011-12-27T09:30:47.000Z</time>
      </trkpt>
      <trkpt lat="44.34509" lon="2.58205">
        <ele>548.40002441406</ele>
        <time>2011-12-27T09:30:52.000Z</time>
      </trkpt>
      <trkpt lat="44.34509" lon="2.58204">
        <ele>548</ele>
        <time>2011-12-27T09:30:53.000Z</time>
      </trkpt>
      <trkpt lat="44.34505" lon="2.58195">
        <ele>546.40002441406</ele>
        <time>2011-12-27T09:30:58.000Z</time>
      </trkpt>
      <trkpt lat="44.34501" lon="2.58186">
        <ele>544.79998779297</ele>
        <time>2011-12-27T09:31:03.000Z</time>
      </trkpt>
      <trkpt lat="44.34501" lon="2.58186">
        <ele>544.79998779297</ele>
        <time>2011-12-27T09:31:04.000Z</time>
      </trkpt>
      <trkpt lat="44.34498" lon="2.58179">
        <ele>543</ele>
        <time>2011-12-27T09:31:07.000Z</time>
      </trkpt>
      <trkpt lat="44.34493" lon="2.58167">
        <ele>540</ele>
        <time>2011-12-27T09:31:13.000Z</time>
      </trkpt>
      <trkpt lat="44.3449" lon="2.58165">
        <ele>539.59997558594</ele>
        <time>2011-12-27T09:31:16.000Z</time>
      </trkpt>
      <trkpt lat="44.3449" lon="2.58159">
        <ele>539</ele>
        <time>2011-12-27T09:31:18.000Z</time>
      </trkpt>
      <trkpt lat="44.34488" lon="2.58153">
        <ele>538.20001220703</ele>
        <time>2011-12-27T09:31:20.000Z</time>
      </trkpt>
      <trkpt lat="44.34487" lon="2.58148">
        <ele>537.59997558594</ele>
        <time>2011-12-27T09:31:22.000Z</time>
      </trkpt>
      <trkpt lat="44.34486" lon="2.58145">
        <ele>537.20001220703</ele>
        <time>2011-12-27T09:31:23.000Z</time>
      </trkpt>
      <trkpt lat="44.34481" lon="2.58136">
        <ele>536</ele>
        <time>2011-12-27T09:31:29.000Z</time>
      </trkpt>
      <trkpt lat="44.34481" lon="2.58143">
        <ele>536.79998779297</ele>
        <time>2011-12-27T09:31:34.000Z</time>
      </trkpt>
      <trkpt lat="44.34478" lon="2.58153">
        <ele>538</ele>
        <time>2011-12-27T09:31:39.000Z</time>
      </trkpt>
      <trkpt lat="44.34477" lon="2.58158">
        <ele>538.59997558594</ele>
        <time>2011-12-27T09:31:42.000Z</time>
      </trkpt>
      <trkpt lat="44.34475" lon="2.58162">
        <ele>539.20001220703</ele>
        <time>2011-12-27T09:31:44.000Z</time>
      </trkpt>
      <trkpt lat="44.34471" lon="2.58168">
        <ele>540</ele>
        <time>2011-12-27T09:31:49.000Z</time>
      </trkpt>
      <trkpt lat="44.3447" lon="2.58169">
        <ele>540.20001220703</ele>
        <time>2011-12-27T09:31:50.000Z</time>
      </trkpt>
      <trkpt lat="44.34469" lon="2.58172">
        <ele>540.79998779297</ele>
        <time>2011-12-27T09:31:53.000Z</time>
      </trkpt>
      <trkpt lat="44.34469" lon="2.58173">
        <ele>541.20001220703</ele>
        <time>2011-12-27T09:31:54.000Z</time>
      </trkpt>
      <trkpt lat="44.34476" lon="2.58177">
        <ele>542.40002441406</ele>
        <time>2011-12-27T09:31:59.000Z</time>
      </trkpt>
      <trkpt lat="44.3448" lon="2.5819">
        <ele>545.59997558594</ele>
        <time>2011-12-27T09:32:04.000Z</time>
      </trkpt>
      <trkpt lat="44.34479" lon="2.58193">
        <ele>546.20001220703</ele>
        <time>2011-12-27T09:32:05.000Z</time>
      </trkpt>
      <trkpt lat="44.34479" lon="2.58198">
        <ele>547.40002441406</ele>
        <time>2011-12-27T09:32:08.000Z</time>
      </trkpt>
      <trkpt lat="44.34469" lon="2.58199">
        <ele>547.40002441406</ele>
        <time>2011-12-27T09:32:12.000Z</time>
      </trkpt>
      <trkpt lat="44.34455" lon="2.58204">
        <ele>548.40002441406</ele>
        <time>2011-12-27T09:32:18.000Z</time>
      </trkpt>
      <trkpt lat="44.34447" lon="2.5821">
        <ele>549.59997558594</ele>
        <time>2011-12-27T09:32:23.000Z</time>
      </trkpt>
      <trkpt lat="44.34437" lon="2.58223">
        <ele>552.40002441406</ele>
        <time>2011-12-27T09:32:29.000Z</time>
      </trkpt>
      <trkpt lat="44.3443" lon="2.58236">
        <ele>555.20001220703</ele>
        <time>2011-12-27T09:32:35.000Z</time>
      </trkpt>
      <trkpt lat="44.34422" lon="2.58253">
        <ele>558.79998779297</ele>
        <time>2011-12-27T09:32:42.000Z</time>
      </trkpt>
      <trkpt lat="44.34414" lon="2.58268">
        <ele>561</ele>
        <time>2011-12-27T09:32:48.000Z</time>
      </trkpt>
      <trkpt lat="44.34408" lon="2.58281">
        <ele>561.79998779297</ele>
        <time>2011-12-27T09:32:54.000Z</time>
      </trkpt>
      <trkpt lat="44.34403" lon="2.58291">
        <ele>562</ele>
        <time>2011-12-27T09:32:58.000Z</time>
      </trkpt>
      <trkpt lat="44.34396" lon="2.58305">
        <ele>562.79998779297</ele>
        <time>2011-12-27T09:33:04.000Z</time>
      </trkpt>
      <trkpt lat="44.3439" lon="2.5832">
        <ele>563.40002441406</ele>
        <time>2011-12-27T09:33:10.000Z</time>
      </trkpt>
      <trkpt lat="44.34386" lon="2.58335">
        <ele>564.40002441406</ele>
        <time>2011-12-27T09:33:16.000Z</time>
      </trkpt>
      <trkpt lat="44.34384" lon="2.58349">
        <ele>565.59997558594</ele>
        <time>2011-12-27T09:33:21.000Z</time>
      </trkpt>
      <trkpt lat="44.34383" lon="2.58363">
        <ele>567</ele>
        <time>2011-12-27T09:33:26.000Z</time>
      </trkpt>
      <trkpt lat="44.34386" lon="2.58379">
        <ele>570</ele>
        <time>2011-12-27T09:33:32.000Z</time>
      </trkpt>
      <trkpt lat="44.34386" lon="2.58382">
        <ele>570.59997558594</ele>
        <time>2011-12-27T09:33:33.000Z</time>
      </trkpt>
      <trkpt lat="44.34389" lon="2.58395">
        <ele>573.20001220703</ele>
        <time>2011-12-27T09:33:38.000Z</time>
      </trkpt>
      <trkpt lat="44.34392" lon="2.58414">
        <ele>576.20001220703</ele>
        <time>2011-12-27T09:33:45.000Z</time>
      </trkpt>
      <trkpt lat="44.34396" lon="2.58427">
        <ele>579.20001220703</ele>
        <time>2011-12-27T09:33:52.000Z</time>
      </trkpt>
      <trkpt lat="44.34393" lon="2.58434">
        <ele>580</ele>
        <time>2011-12-27T09:33:58.000Z</time>
      </trkpt>
      <trkpt lat="44.34391" lon="2.58435">
        <ele>579.40002441406</ele>
        <time>2011-12-27T09:34:00.000Z</time>
      </trkpt>
      <trkpt lat="44.34387" lon="2.58435">
        <ele>578.79998779297</ele>
        <time>2011-12-27T09:34:03.000Z</time>
      </trkpt>
      <trkpt lat="44.34389" lon="2.58435">
        <ele>579</ele>
        <time>2011-12-27T09:34:05.000Z</time>
      </trkpt>
      <trkpt lat="44.34386" lon="2.58436">
        <ele>578.59997558594</ele>
        <time>2011-12-27T09:34:10.000Z</time>
      </trkpt>
      <trkpt lat="44.34385" lon="2.58438">
        <ele>578.79998779297</ele>
        <time>2011-12-27T09:34:11.000Z</time>
      </trkpt>
      <trkpt lat="44.3438" lon="2.58445">
        <ele>578.59997558594</ele>
        <time>2011-12-27T09:34:14.000Z</time>
      </trkpt>
      <trkpt lat="44.3437" lon="2.58453">
        <ele>577.79998779297</ele>
        <time>2011-12-27T09:34:19.000Z</time>
      </trkpt>
      <trkpt lat="44.34363" lon="2.58457">
        <ele>576.79998779297</ele>
        <time>2011-12-27T09:34:22.000Z</time>
      </trkpt>
      <trkpt lat="44.34361" lon="2.58458">
        <ele>576.59997558594</ele>
        <time>2011-12-27T09:34:23.000Z</time>
      </trkpt>
      <trkpt lat="44.34353" lon="2.58464">
        <ele>576</ele>
        <time>2011-12-27T09:34:28.000Z</time>
      </trkpt>
      <trkpt lat="44.34344" lon="2.58472">
        <ele>575.59997558594</ele>
        <time>2011-12-27T09:34:33.000Z</time>
      </trkpt>
      <trkpt lat="44.34336" lon="2.58482">
        <ele>575.79998779297</ele>
        <time>2011-12-27T09:34:38.000Z</time>
      </trkpt>
      <trkpt lat="44.3433" lon="2.58491">
        <ele>576.40002441406</ele>
        <time>2011-12-27T09:34:42.000Z</time>
      </trkpt>
      <trkpt lat="44.34328" lon="2.58506">
        <ele>578.79998779297</ele>
        <time>2011-12-27T09:34:48.000Z</time>
      </trkpt>
      <trkpt lat="44.34329" lon="2.58518">
        <ele>580.79998779297</ele>
        <time>2011-12-27T09:34:52.000Z</time>
      </trkpt>
      <trkpt lat="44.34329" lon="2.5852">
        <ele>581.20001220703</ele>
        <time>2011-12-27T09:34:53.000Z</time>
      </trkpt>
      <trkpt lat="44.34331" lon="2.58523">
        <ele>582</ele>
        <time>2011-12-27T09:34:56.000Z</time>
      </trkpt>
      <trkpt lat="44.34332" lon="2.58524">
        <ele>582.20001220703</ele>
        <time>2011-12-27T09:34:58.000Z</time>
      </trkpt>
      <trkpt lat="44.34335" lon="2.58521">
        <ele>582.20001220703</ele>
        <time>2011-12-27T09:35:02.000Z</time>
      </trkpt>
      <trkpt lat="44.34335" lon="2.58519">
        <ele>582.20001220703</ele>
        <time>2011-12-27T09:35:04.000Z</time>
      </trkpt>
      <trkpt lat="44.34337" lon="2.58513">
        <ele>581.59997558594</ele>
        <time>2011-12-27T09:35:08.000Z</time>
      </trkpt>
      <trkpt lat="44.34339" lon="2.58507">
        <ele>581.20001220703</ele>
        <time>2011-12-27T09:35:12.000Z</time>
      </trkpt>
      <trkpt lat="44.34343" lon="2.58499">
        <ele>580.79998779297</ele>
        <time>2011-12-27T09:35:18.000Z</time>
      </trkpt>
      <trkpt lat="44.34346" lon="2.58492">
        <ele>580</ele>
        <time>2011-12-27T09:35:26.000Z</time>
      </trkpt>
      <trkpt lat="44.34349" lon="2.58493">
        <ele>581</ele>
        <time>2011-12-27T09:35:34.000Z</time>
      </trkpt>
      <trkpt lat="44.34352" lon="2.58491">
        <ele>581.40002441406</ele>
        <time>2011-12-27T09:35:40.000Z</time>
      </trkpt>
      <trkpt lat="44.34354" lon="2.58488">
        <ele>581</ele>
        <time>2011-12-27T09:35:50.000Z</time>
      </trkpt>
      <trkpt lat="44.34355" lon="2.58488">
        <ele>581</ele>
        <time>2011-12-27T09:35:51.000Z</time>
      </trkpt>
      <trkpt lat="44.34353" lon="2.58485">
        <ele>580.20001220703</ele>
        <time>2011-12-27T09:35:56.000Z</time>
      </trkpt>
      <trkpt lat="44.34353" lon="2.5848">
        <ele>579.20001220703</ele>
        <time>2011-12-27T09:36:00.000Z</time>
      </trkpt>
      <trkpt lat="44.34353" lon="2.58475">
        <ele>578</ele>
        <time>2011-12-27T09:36:05.000Z</time>
      </trkpt>
      <trkpt lat="44.34352" lon="2.5847">
        <ele>576.79998779297</ele>
        <time>2011-12-27T09:36:20.000Z</time>
      </trkpt>
      <trkpt lat="44.34353" lon="2.58481">
        <ele>579.20001220703</ele>
        <time>2011-12-27T09:36:52.000Z</time>
      </trkpt>
      <trkpt lat="44.3435" lon="2.58482">
        <ele>579</ele>
        <time>2011-12-27T09:37:02.000Z</time>
      </trkpt>
      <trkpt lat="44.34348" lon="2.58484">
        <ele>578.79998779297</ele>
        <time>2011-12-27T09:37:06.000Z</time>
      </trkpt>
      <trkpt lat="44.34351" lon="2.5848">
        <ele>578.59997558594</ele>
        <time>2011-12-27T09:37:11.000Z</time>
      </trkpt>
      <trkpt lat="44.34352" lon="2.58477">
        <ele>578.20001220703</ele>
        <time>2011-12-27T09:37:14.000Z</time>
      </trkpt>
      <trkpt lat="44.34354" lon="2.58476">
        <ele>578.59997558594</ele>
        <time>2011-12-27T09:37:17.000Z</time>
      </trkpt>
      <trkpt lat="44.34356" lon="2.58476">
        <ele>579</ele>
        <time>2011-12-27T09:37:19.000Z</time>
      </trkpt>
      <trkpt lat="44.34357" lon="2.58476">
        <ele>579.20001220703</ele>
        <time>2011-12-27T09:37:23.000Z</time>
      </trkpt>
      <trkpt lat="44.34351" lon="2.5848">
        <ele>578.59997558594</ele>
        <time>2011-12-27T09:37:30.000Z</time>
      </trkpt>
      <trkpt lat="44.34349" lon="2.58485">
        <ele>579.20001220703</ele>
        <time>2011-12-27T09:37:37.000Z</time>
      </trkpt>
      <trkpt lat="44.3435" lon="2.58494">
        <ele>581.40002441406</ele>
        <time>2011-12-27T09:37:43.000Z</time>
      </trkpt>
      <trkpt lat="44.34353" lon="2.585">
        <ele>583.20001220703</ele>
        <time>2011-12-27T09:37:48.000Z</time>
      </trkpt>
      <trkpt lat="44.34356" lon="2.58501">
        <ele>584</ele>
        <time>2011-12-27T09:37:49.000Z</time>
      </trkpt>
      <trkpt lat="44.34361" lon="2.58502">
        <ele>585.20001220703</ele>
        <time>2011-12-27T09:37:52.000Z</time>
      </trkpt>
      <trkpt lat="44.344" lon="2.58568">
        <ele>603.20001220703</ele>
        <time>2011-12-27T09:38:17.000Z</time>
      </trkpt>
      <trkpt lat="44.34403" lon="2.58574">
        <ele>604.59997558594</ele>
        <time>2011-12-27T09:38:18.000Z</time>
      </trkpt>
      <trkpt lat="44.34365" lon="2.58481">
        <ele>582</ele>
        <time>2011-12-27T09:38:28.000Z</time>
      </trkpt>
      <trkpt lat="44.34363" lon="2.58473">
        <ele>580.20001220703</ele>
        <time>2011-12-27T09:38:29.000Z</time>
      </trkpt>
      <trkpt lat="44.34367" lon="2.58482">
        <ele>582.79998779297</ele>
        <time>2011-12-27T09:38:31.000Z</time>
      </trkpt>
      <trkpt lat="44.34366" lon="2.58483">
        <ele>582.59997558594</ele>
        <time>2011-12-27T09:38:32.000Z</time>
      </trkpt>
      <trkpt lat="44.34362" lon="2.58488">
        <ele>582.79998779297</ele>
        <time>2011-12-27T09:38:37.000Z</time>
      </trkpt>
      <trkpt lat="44.34362" lon="2.58489">
        <ele>583.20001220703</ele>
        <time>2011-12-27T09:38:38.000Z</time>
      </trkpt>
      <trkpt lat="44.34348" lon="2.58525">
        <ele>585.79998779297</ele>
        <time>2011-12-27T09:39:11.000Z</time>
      </trkpt>
      <trkpt lat="44.34366" lon="2.58504">
        <ele>586.79998779297</ele>
        <time>2011-12-27T09:39:14.000Z</time>
      </trkpt>
      <trkpt lat="44.34355" lon="2.58506">
        <ele>584.40002441406</ele>
        <time>2011-12-27T09:39:22.000Z</time>
      </trkpt>
      <trkpt lat="44.34352" lon="2.58507">
        <ele>584.20001220703</ele>
        <time>2011-12-27T09:39:25.000Z</time>
      </trkpt>
      <trkpt lat="44.3435" lon="2.58504">
        <ele>583.20001220703</ele>
        <time>2011-12-27T09:39:29.000Z</time>
      </trkpt>
      <trkpt lat="44.34346" lon="2.58502">
        <ele>582</ele>
        <time>2011-12-27T09:39:32.000Z</time>
      </trkpt>
      <trkpt lat="44.34343" lon="2.58499">
        <ele>580.79998779297</ele>
        <time>2011-12-27T09:39:35.000Z</time>
      </trkpt>
      <trkpt lat="44.3434" lon="2.58502">
        <ele>580.79998779297</ele>
        <time>2011-12-27T09:39:42.000Z</time>
      </trkpt>
      <trkpt lat="44.34337" lon="2.58503">
        <ele>580.20001220703</ele>
        <time>2011-12-27T09:39:45.000Z</time>
      </trkpt>
      <trkpt lat="44.34337" lon="2.58506">
        <ele>580.59997558594</ele>
        <time>2011-12-27T09:39:46.000Z</time>
      </trkpt>
      <trkpt lat="44.34338" lon="2.58515">
        <ele>582.20001220703</ele>
        <time>2011-12-27T09:39:49.000Z</time>
      </trkpt>
      <trkpt lat="44.34344" lon="2.58516">
        <ele>583.79998779297</ele>
        <time>2011-12-27T09:39:53.000Z</time>
      </trkpt>
      <trkpt lat="44.34352" lon="2.58514">
        <ele>585</ele>
        <time>2011-12-27T09:39:59.000Z</time>
      </trkpt>
      <trkpt lat="44.34353" lon="2.58514">
        <ele>585</ele>
        <time>2011-12-27T09:40:00.000Z</time>
      </trkpt>
      <trkpt lat="44.34356" lon="2.58513">
        <ele>585.79998779297</ele>
        <time>2011-12-27T09:40:04.000Z</time>
      </trkpt>
      <trkpt lat="44.34357" lon="2.58512">
        <ele>585.79998779297</ele>
        <time>2011-12-27T09:40:05.000Z</time>
      </trkpt>
      <trkpt lat="44.3436" lon="2.58514">
        <ele>586.59997558594</ele>
        <time>2011-12-27T09:40:10.000Z</time>
      </trkpt>
      <trkpt lat="44.3436" lon="2.58513">
        <ele>586.40002441406</ele>
        <time>2011-12-27T09:40:18.000Z</time>
      </trkpt>
      <trkpt lat="44.34354" lon="2.58514">
        <ele>585.59997558594</ele>
        <time>2011-12-27T09:40:43.000Z</time>
      </trkpt>
      <trkpt lat="44.34352" lon="2.58513">
        <ele>585</ele>
        <time>2011-12-27T09:40:48.000Z</time>
      </trkpt>
      <trkpt lat="44.3435" lon="2.58513">
        <ele>584.59997558594</ele>
        <time>2011-12-27T09:41:04.000Z</time>
      </trkpt>
      <trkpt lat="44.34346" lon="2.58516">
        <ele>584</ele>
        <time>2011-12-27T09:41:07.000Z</time>
      </trkpt>
      <trkpt lat="44.34336" lon="2.58517">
        <ele>582.20001220703</ele>
        <time>2011-12-27T09:41:12.000Z</time>
      </trkpt>
      <trkpt lat="44.3433" lon="2.58528">
        <ele>582.40002441406</ele>
        <time>2011-12-27T09:41:16.000Z</time>
      </trkpt>
      <trkpt lat="44.34327" lon="2.58533">
        <ele>582.79998779297</ele>
        <time>2011-12-27T09:41:19.000Z</time>
      </trkpt>
      <trkpt lat="44.34328" lon="2.58533">
        <ele>582.79998779297</ele>
        <time>2011-12-27T09:41:20.000Z</time>
      </trkpt>
      <trkpt lat="44.34328" lon="2.5854">
        <ele>584</ele>
        <time>2011-12-27T09:41:24.000Z</time>
      </trkpt>
      <trkpt lat="44.34327" lon="2.58536">
        <ele>583.40002441406</ele>
        <time>2011-12-27T09:41:27.000Z</time>
      </trkpt>
      <trkpt lat="44.34327" lon="2.58529">
        <ele>582.20001220703</ele>
        <time>2011-12-27T09:41:29.000Z</time>
      </trkpt>
      <trkpt lat="44.34327" lon="2.58513">
        <ele>579.59997558594</ele>
        <time>2011-12-27T09:41:33.000Z</time>
      </trkpt>
      <trkpt lat="44.34327" lon="2.58509">
        <ele>579.20001220703</ele>
        <time>2011-12-27T09:41:34.000Z</time>
      </trkpt>
      <trkpt lat="44.34335" lon="2.58488">
        <ele>576.59997558594</ele>
        <time>2011-12-27T09:41:40.000Z</time>
      </trkpt>
      <trkpt lat="44.34348" lon="2.58472">
        <ele>576.40002441406</ele>
        <time>2011-12-27T09:41:46.000Z</time>
      </trkpt>
      <trkpt lat="44.34351" lon="2.58469">
        <ele>576.40002441406</ele>
        <time>2011-12-27T09:41:47.000Z</time>
      </trkpt>
      <trkpt lat="44.34368" lon="2.58457">
        <ele>578</ele>
        <time>2011-12-27T09:41:54.000Z</time>
      </trkpt>
      <trkpt lat="44.34387" lon="2.58444">
        <ele>580.20001220703</ele>
        <time>2011-12-27T09:42:01.000Z</time>
      </trkpt>
      <trkpt lat="44.34399" lon="2.58435">
        <ele>581.59997558594</ele>
        <time>2011-12-27T09:42:06.000Z</time>
      </trkpt>
      <trkpt lat="44.34403" lon="2.58421">
        <ele>580.20001220703</ele>
        <time>2011-12-27T09:42:11.000Z</time>
      </trkpt>
      <trkpt lat="44.34402" lon="2.5841">
        <ele>578.59997558594</ele>
        <time>2011-12-27T09:42:14.000Z</time>
      </trkpt>
      <trkpt lat="44.34403" lon="2.58391">
        <ele>576.79998779297</ele>
        <time>2011-12-27T09:42:20.000Z</time>
      </trkpt>
      <trkpt lat="44.34404" lon="2.58379">
        <ele>575.79998779297</ele>
        <time>2011-12-27T09:42:24.000Z</time>
      </trkpt>
      <trkpt lat="44.34404" lon="2.58375">
        <ele>575.59997558594</ele>
        <time>2011-12-27T09:42:25.000Z</time>
      </trkpt>
      <trkpt lat="44.34407" lon="2.58361">
        <ele>575</ele>
        <time>2011-12-27T09:42:29.000Z</time>
      </trkpt>
      <trkpt lat="44.34414" lon="2.58345">
        <ele>575.79998779297</ele>
        <time>2011-12-27T09:42:35.000Z</time>
      </trkpt>
      <trkpt lat="44.34421" lon="2.58337">
        <ele>577</ele>
        <time>2011-12-27T09:42:39.000Z</time>
      </trkpt>
      <trkpt lat="44.34422" lon="2.58335">
        <ele>577</ele>
        <time>2011-12-27T09:42:40.000Z</time>
      </trkpt>
      <trkpt lat="44.34433" lon="2.58325">
        <ele>576.40002441406</ele>
        <time>2011-12-27T09:42:45.000Z</time>
      </trkpt>
      <trkpt lat="44.34443" lon="2.58314">
        <ele>575</ele>
        <time>2011-12-27T09:42:50.000Z</time>
      </trkpt>
      <trkpt lat="44.34451" lon="2.58306">
        <ele>573.79998779297</ele>
        <time>2011-12-27T09:42:54.000Z</time>
      </trkpt>
      <trkpt lat="44.34462" lon="2.58299">
        <ele>573</ele>
        <time>2011-12-27T09:42:59.000Z</time>
      </trkpt>
      <trkpt lat="44.34476" lon="2.58312">
        <ele>578.40002441406</ele>
        <time>2011-12-27T09:43:04.000Z</time>
      </trkpt>
      <trkpt lat="44.34481" lon="2.58323">
        <ele>582.20001220703</ele>
        <time>2011-12-27T09:43:08.000Z</time>
      </trkpt>
      <trkpt lat="44.34482" lon="2.58325">
        <ele>583</ele>
        <time>2011-12-27T09:43:09.000Z</time>
      </trkpt>
      <trkpt lat="44.34484" lon="2.58333">
        <ele>585.59997558594</ele>
        <time>2011-12-27T09:43:12.000Z</time>
      </trkpt>
      <trkpt lat="44.34484" lon="2.58338">
        <ele>586.40002441406</ele>
        <time>2011-12-27T09:43:14.000Z</time>
      </trkpt>
      <trkpt lat="44.34483" lon="2.5834">
        <ele>586.40002441406</ele>
        <time>2011-12-27T09:43:15.000Z</time>
      </trkpt>
      <trkpt lat="44.34478" lon="2.58344">
        <ele>586.40002441406</ele>
        <time>2011-12-27T09:43:18.000Z</time>
      </trkpt>
      <trkpt lat="44.34477" lon="2.58346">
        <ele>586.20001220703</ele>
        <time>2011-12-27T09:43:19.000Z</time>
      </trkpt>
      <trkpt lat="44.3447" lon="2.58354">
        <ele>586.20001220703</ele>
        <time>2011-12-27T09:43:24.000Z</time>
      </trkpt>
      <trkpt lat="44.34467" lon="2.58366">
        <ele>587.20001220703</ele>
        <time>2011-12-27T09:43:29.000Z</time>
      </trkpt>
      <trkpt lat="44.34468" lon="2.58371">
        <ele>588</ele>
        <time>2011-12-27T09:43:32.000Z</time>
      </trkpt>
      <trkpt lat="44.34469" lon="2.58372">
        <ele>588.20001220703</ele>
        <time>2011-12-27T09:43:34.000Z</time>
      </trkpt>
      <trkpt lat="44.3447" lon="2.58375">
        <ele>588.79998779297</ele>
        <time>2011-12-27T09:43:39.000Z</time>
      </trkpt>
      <trkpt lat="44.34476" lon="2.58381">
        <ele>590.59997558594</ele>
        <time>2011-12-27T09:43:43.000Z</time>
      </trkpt>
      <trkpt lat="44.34485" lon="2.58391">
        <ele>593.40002441406</ele>
        <time>2011-12-27T09:43:49.000Z</time>
      </trkpt>
      <trkpt lat="44.34492" lon="2.58399">
        <ele>596</ele>
        <time>2011-12-27T09:43:54.000Z</time>
      </trkpt>
      <trkpt lat="44.345" lon="2.58408">
        <ele>598.59997558594</ele>
        <time>2011-12-27T09:44:00.000Z</time>
      </trkpt>
      <trkpt lat="44.34505" lon="2.58413">
        <ele>599.59997558594</ele>
        <time>2011-12-27T09:44:04.000Z</time>
      </trkpt>
      <trkpt lat="44.34506" lon="2.58414">
        <ele>599.79998779297</ele>
        <time>2011-12-27T09:44:05.000Z</time>
      </trkpt>
      <trkpt lat="44.34516" lon="2.58422">
        <ele>600.79998779297</ele>
        <time>2011-12-27T09:44:10.000Z</time>
      </trkpt>
      <trkpt lat="44.34526" lon="2.58432">
        <ele>602</ele>
        <time>2011-12-27T09:44:16.000Z</time>
      </trkpt>
      <trkpt lat="44.34533" lon="2.5844">
        <ele>603</ele>
        <time>2011-12-27T09:44:21.000Z</time>
      </trkpt>
      <trkpt lat="44.34542" lon="2.58448">
        <ele>604.40002441406</ele>
        <time>2011-12-27T09:44:27.000Z</time>
      </trkpt>
      <trkpt lat="44.34549" lon="2.58457">
        <ele>605.59997558594</ele>
        <time>2011-12-27T09:44:33.000Z</time>
      </trkpt>
      <trkpt lat="44.34554" lon="2.58462">
        <ele>606.40002441406</ele>
        <time>2011-12-27T09:44:37.000Z</time>
      </trkpt>
      <trkpt lat="44.3456" lon="2.58469">
        <ele>607.59997558594</ele>
        <time>2011-12-27T09:44:42.000Z</time>
      </trkpt>
      <trkpt lat="44.3457" lon="2.58478">
        <ele>609.20001220703</ele>
        <time>2011-12-27T09:44:48.000Z</time>
      </trkpt>
      <trkpt lat="44.34577" lon="2.58486">
        <ele>610.79998779297</ele>
        <time>2011-12-27T09:44:54.000Z</time>
      </trkpt>
      <trkpt lat="44.34584" lon="2.58492">
        <ele>611.79998779297</ele>
        <time>2011-12-27T09:44:58.000Z</time>
      </trkpt>
      <trkpt lat="44.3459" lon="2.58503">
        <ele>613</ele>
        <time>2011-12-27T09:45:03.000Z</time>
      </trkpt>
      <trkpt lat="44.34595" lon="2.58519">
        <ele>614.20001220703</ele>
        <time>2011-12-27T09:45:09.000Z</time>
      </trkpt>
      <trkpt lat="44.34598" lon="2.58533">
        <ele>615.40002441406</ele>
        <time>2011-12-27T09:45:15.000Z</time>
      </trkpt>
      <trkpt lat="44.34602" lon="2.58549">
        <ele>616.79998779297</ele>
        <time>2011-12-27T09:45:21.000Z</time>
      </trkpt>
      <trkpt lat="44.34606" lon="2.58565">
        <ele>618</ele>
        <time>2011-12-27T09:45:27.000Z</time>
      </trkpt>
      <trkpt lat="44.34608" lon="2.58569">
        <ele>618.40002441406</ele>
        <time>2011-12-27T09:45:29.000Z</time>
      </trkpt>
      <trkpt lat="44.3461" lon="2.58573">
        <ele>618.79998779297</ele>
        <time>2011-12-27T09:45:31.000Z</time>
      </trkpt>
      <trkpt lat="44.34614" lon="2.58584">
        <ele>619.59997558594</ele>
        <time>2011-12-27T09:45:36.000Z</time>
      </trkpt>
      <trkpt lat="44.34619" lon="2.58594">
        <ele>620.20001220703</ele>
        <time>2011-12-27T09:45:40.000Z</time>
      </trkpt>
      <trkpt lat="44.34624" lon="2.58604">
        <ele>620.79998779297</ele>
        <time>2011-12-27T09:45:45.000Z</time>
      </trkpt>
      <trkpt lat="44.34626" lon="2.58607">
        <ele>621</ele>
        <time>2011-12-27T09:45:46.000Z</time>
      </trkpt>
      <trkpt lat="44.34632" lon="2.58618">
        <ele>621.59997558594</ele>
        <time>2011-12-27T09:45:51.000Z</time>
      </trkpt>
      <trkpt lat="44.34637" lon="2.58628">
        <ele>622.40002441406</ele>
        <time>2011-12-27T09:45:55.000Z</time>
      </trkpt>
      <trkpt lat="44.34645" lon="2.58641">
        <ele>623.40002441406</ele>
        <time>2011-12-27T09:46:00.000Z</time>
      </trkpt>
      <trkpt lat="44.34649" lon="2.58647">
        <ele>624</ele>
        <time>2011-12-27T09:46:03.000Z</time>
      </trkpt>
      <trkpt lat="44.34652" lon="2.58652">
        <ele>624.40002441406</ele>
        <time>2011-12-27T09:46:05.000Z</time>
      </trkpt>
      <trkpt lat="44.34657" lon="2.58658">
        <ele>625</ele>
        <time>2011-12-27T09:46:08.000Z</time>
      </trkpt>
      <trkpt lat="44.34659" lon="2.58662">
        <ele>625.40002441406</ele>
        <time>2011-12-27T09:46:10.000Z</time>
      </trkpt>
      <trkpt lat="44.34664" lon="2.58669">
        <ele>626</ele>
        <time>2011-12-27T09:46:14.000Z</time>
      </trkpt>
      <trkpt lat="44.3467" lon="2.58677">
        <ele>626.59997558594</ele>
        <time>2011-12-27T09:46:19.000Z</time>
      </trkpt>
      <trkpt lat="44.34678" lon="2.58687">
        <ele>627.40002441406</ele>
        <time>2011-12-27T09:46:25.000Z</time>
      </trkpt>
      <trkpt lat="44.34687" lon="2.58698">
        <ele>628.20001220703</ele>
        <time>2011-12-27T09:46:31.000Z</time>
      </trkpt>
      <trkpt lat="44.34693" lon="2.58708">
        <ele>629</ele>
        <time>2011-12-27T09:46:37.000Z</time>
      </trkpt>
      <trkpt lat="44.34699" lon="2.58717">
        <ele>629.59997558594</ele>
        <time>2011-12-27T09:46:42.000Z</time>
      </trkpt>
      <trkpt lat="44.34707" lon="2.58726">
        <ele>630.20001220703</ele>
        <time>2011-12-27T09:46:47.000Z</time>
      </trkpt>
      <trkpt lat="44.34715" lon="2.58737">
        <ele>631.20001220703</ele>
        <time>2011-12-27T09:46:53.000Z</time>
      </trkpt>
      <trkpt lat="44.3472" lon="2.5874">
        <ele>631.40002441406</ele>
        <time>2011-12-27T09:46:58.000Z</time>
      </trkpt>
      <trkpt lat="44.3472" lon="2.58741">
        <ele>631.59997558594</ele>
        <time>2011-12-27T09:46:59.000Z</time>
      </trkpt>
      <trkpt lat="44.34723" lon="2.58742">
        <ele>631.59997558594</ele>
        <time>2011-12-27T09:47:03.000Z</time>
      </trkpt>
      <trkpt lat="44.34723" lon="2.58743">
        <ele>631.59997558594</ele>
        <time>2011-12-27T09:47:08.000Z</time>
      </trkpt>
      <trkpt lat="44.34729" lon="2.58747">
        <ele>632.20001220703</ele>
        <time>2011-12-27T09:47:15.000Z</time>
      </trkpt>
      <trkpt lat="44.34733" lon="2.58752">
        <ele>632.40002441406</ele>
        <time>2011-12-27T09:47:20.000Z</time>
      </trkpt>
      <trkpt lat="44.34734" lon="2.58754">
        <ele>632.40002441406</ele>
        <time>2011-12-27T09:47:27.000Z</time>
      </trkpt>
      <trkpt lat="44.34735" lon="2.58752">
        <ele>632.40002441406</ele>
        <time>2011-12-27T09:47:41.000Z</time>
      </trkpt>
      <trkpt lat="44.34739" lon="2.58749">
        <ele>632.59997558594</ele>
        <time>2011-12-27T09:47:47.000Z</time>
      </trkpt>
      <trkpt lat="44.3474" lon="2.5875">
        <ele>632.59997558594</ele>
        <time>2011-12-27T09:47:48.000Z</time>
      </trkpt>
      <trkpt lat="44.34739" lon="2.58755">
        <ele>632.59997558594</ele>
        <time>2011-12-27T09:47:53.000Z</time>
      </trkpt>
      <trkpt lat="44.34735" lon="2.58757">
        <ele>632.59997558594</ele>
        <time>2011-12-27T09:48:00.000Z</time>
      </trkpt>
      <trkpt lat="44.34733" lon="2.58758">
        <ele>632.59997558594</ele>
        <time>2011-12-27T09:48:06.000Z</time>
      </trkpt>
      <trkpt lat="44.34734" lon="2.58756">
        <ele>632.59997558594</ele>
        <time>2011-12-27T09:48:12.000Z</time>
      </trkpt>
      <trkpt lat="44.34737" lon="2.58756">
        <ele>632.59997558594</ele>
        <time>2011-12-27T09:48:29.000Z</time>
      </trkpt>
      <trkpt lat="44.34738" lon="2.58757">
        <ele>632.79998779297</ele>
        <time>2011-12-27T09:48:30.000Z</time>
      </trkpt>
      <trkpt lat="44.34745" lon="2.58762">
        <ele>633</ele>
        <time>2011-12-27T09:48:33.000Z</time>
      </trkpt>
      <trkpt lat="44.34748" lon="2.58766">
        <ele>633.20001220703</ele>
        <time>2011-12-27T09:48:35.000Z</time>
      </trkpt>
      <trkpt lat="44.34751" lon="2.58774">
        <ele>633.20001220703</ele>
        <time>2011-12-27T09:48:40.000Z</time>
      </trkpt>
      <trkpt lat="44.34752" lon="2.58774">
        <ele>633.20001220703</ele>
        <time>2011-12-27T09:48:41.000Z</time>
      </trkpt>
      <trkpt lat="44.34754" lon="2.58772">
        <ele>633</ele>
        <time>2011-12-27T09:48:46.000Z</time>
      </trkpt>
      <trkpt lat="44.34754" lon="2.58776">
        <ele>633.20001220703</ele>
        <time>2011-12-27T09:48:50.000Z</time>
      </trkpt>
      <trkpt lat="44.34753" lon="2.58778">
        <ele>633.20001220703</ele>
        <time>2011-12-27T09:48:56.000Z</time>
      </trkpt>
      <trkpt lat="44.34751" lon="2.58778">
        <ele>633.20001220703</ele>
        <time>2011-12-27T09:49:17.000Z</time>
      </trkpt>
      <trkpt lat="44.3475" lon="2.58777">
        <ele>633.40002441406</ele>
        <time>2011-12-27T09:49:28.000Z</time>
      </trkpt>
      <trkpt lat="44.34754" lon="2.58782">
        <ele>633.20001220703</ele>
        <time>2011-12-27T09:49:36.000Z</time>
      </trkpt>
      <trkpt lat="44.34754" lon="2.58784">
        <ele>633.20001220703</ele>
        <time>2011-12-27T09:49:37.000Z</time>
      </trkpt>
      <trkpt lat="44.34757" lon="2.58794">
        <ele>633.20001220703</ele>
        <time>2011-12-27T09:49:42.000Z</time>
      </trkpt>
      <trkpt lat="44.34761" lon="2.58815">
        <ele>633.20001220703</ele>
        <time>2011-12-27T09:49:48.000Z</time>
      </trkpt>
      <trkpt lat="44.34763" lon="2.58822">
        <ele>633.20001220703</ele>
        <time>2011-12-27T09:49:53.000Z</time>
      </trkpt>
      <trkpt lat="44.34761" lon="2.58825">
        <ele>633.40002441406</ele>
        <time>2011-12-27T09:49:57.000Z</time>
      </trkpt>
      <trkpt lat="44.3476" lon="2.58826">
        <ele>633.40002441406</ele>
        <time>2011-12-27T09:49:58.000Z</time>
      </trkpt>
      <trkpt lat="44.34761" lon="2.58829">
        <ele>633.40002441406</ele>
        <time>2011-12-27T09:50:03.000Z</time>
      </trkpt>
      <trkpt lat="44.34761" lon="2.58834">
        <ele>633.40002441406</ele>
        <time>2011-12-27T09:50:09.000Z</time>
      </trkpt>
      <trkpt lat="44.34758" lon="2.58841">
        <ele>633.59997558594</ele>
        <time>2011-12-27T09:50:13.000Z</time>
      </trkpt>
      <trkpt lat="44.34753" lon="2.58853">
        <ele>634</ele>
        <time>2011-12-27T09:50:17.000Z</time>
      </trkpt>
      <trkpt lat="44.34748" lon="2.58869">
        <ele>634.40002441406</ele>
        <time>2011-12-27T09:50:21.000Z</time>
      </trkpt>
      <trkpt lat="44.34743" lon="2.58881">
        <ele>634.59997558594</ele>
        <time>2011-12-27T09:50:25.000Z</time>
      </trkpt>
      <trkpt lat="44.34738" lon="2.58895">
        <ele>635</ele>
        <time>2011-12-27T09:50:29.000Z</time>
      </trkpt>
      <trkpt lat="44.34733" lon="2.58911">
        <ele>635.40002441406</ele>
        <time>2011-12-27T09:50:34.000Z</time>
      </trkpt>
      <trkpt lat="44.34724" lon="2.58928">
        <ele>635</ele>
        <time>2011-12-27T09:50:39.000Z</time>
      </trkpt>
      <trkpt lat="44.34716" lon="2.58945">
        <ele>634.40002441406</ele>
        <time>2011-12-27T09:50:44.000Z</time>
      </trkpt>
      <trkpt lat="44.34712" lon="2.58963">
        <ele>633.79998779297</ele>
        <time>2011-12-27T09:50:50.000Z</time>
      </trkpt>
      <trkpt lat="44.34703" lon="2.58986">
        <ele>633.40002441406</ele>
        <time>2011-12-27T09:50:57.000Z</time>
      </trkpt>
      <trkpt lat="44.34696" lon="2.59006">
        <ele>633.59997558594</ele>
        <time>2011-12-27T09:51:03.000Z</time>
      </trkpt>
      <trkpt lat="44.34688" lon="2.59024">
        <ele>634</ele>
        <time>2011-12-27T09:51:08.000Z</time>
      </trkpt>
      <trkpt lat="44.34682" lon="2.59041">
        <ele>634.40002441406</ele>
        <time>2011-12-27T09:51:13.000Z</time>
      </trkpt>
      <trkpt lat="44.34673" lon="2.59065">
        <ele>634.79998779297</ele>
        <time>2011-12-27T09:51:20.000Z</time>
      </trkpt>
      <trkpt lat="44.34667" lon="2.59082">
        <ele>635</ele>
        <time>2011-12-27T09:51:25.000Z</time>
      </trkpt>
      <trkpt lat="44.34662" lon="2.59098">
        <ele>635</ele>
        <time>2011-12-27T09:51:30.000Z</time>
      </trkpt>
      <trkpt lat="44.34657" lon="2.59115">
        <ele>635</ele>
        <time>2011-12-27T09:51:35.000Z</time>
      </trkpt>
      <trkpt lat="44.3465" lon="2.59133">
        <ele>635</ele>
        <time>2011-12-27T09:51:40.000Z</time>
      </trkpt>
      <trkpt lat="44.34641" lon="2.59157">
        <ele>635</ele>
        <time>2011-12-27T09:51:47.000Z</time>
      </trkpt>
      <trkpt lat="44.34633" lon="2.59177">
        <ele>634.79998779297</ele>
        <time>2011-12-27T09:51:53.000Z</time>
      </trkpt>
      <trkpt lat="44.34624" lon="2.59201">
        <ele>634.59997558594</ele>
        <time>2011-12-27T09:52:00.000Z</time>
      </trkpt>
      <trkpt lat="44.34617" lon="2.59219">
        <ele>634.59997558594</ele>
        <time>2011-12-27T09:52:06.000Z</time>
      </trkpt>
      <trkpt lat="44.34613" lon="2.59233">
        <ele>634.59997558594</ele>
        <time>2011-12-27T09:52:10.000Z</time>
      </trkpt>
      <trkpt lat="44.34606" lon="2.59251">
        <ele>635</ele>
        <time>2011-12-27T09:52:15.000Z</time>
      </trkpt>
      <trkpt lat="44.346" lon="2.59268">
        <ele>635.20001220703</ele>
        <time>2011-12-27T09:52:20.000Z</time>
      </trkpt>
      <trkpt lat="44.34594" lon="2.59292">
        <ele>635.79998779297</ele>
        <time>2011-12-27T09:52:27.000Z</time>
      </trkpt>
      <trkpt lat="44.34593" lon="2.59311">
        <ele>636</ele>
        <time>2011-12-27T09:52:32.000Z</time>
      </trkpt>
      <trkpt lat="44.34594" lon="2.5933">
        <ele>636</ele>
        <time>2011-12-27T09:52:37.000Z</time>
      </trkpt>
      <trkpt lat="44.34595" lon="2.59349">
        <ele>635.59997558594</ele>
        <time>2011-12-27T09:52:42.000Z</time>
      </trkpt>
      <trkpt lat="44.34596" lon="2.59366">
        <ele>635.20001220703</ele>
        <time>2011-12-27T09:52:47.000Z</time>
      </trkpt>
      <trkpt lat="44.34599" lon="2.59386">
        <ele>634.59997558594</ele>
        <time>2011-12-27T09:52:52.000Z</time>
      </trkpt>
      <trkpt lat="44.346" lon="2.59397">
        <ele>634.20001220703</ele>
        <time>2011-12-27T09:52:55.000Z</time>
      </trkpt>
      <trkpt lat="44.34601" lon="2.59405">
        <ele>634</ele>
        <time>2011-12-27T09:52:57.000Z</time>
      </trkpt>
      <trkpt lat="44.34605" lon="2.59426">
        <ele>633.20001220703</ele>
        <time>2011-12-27T09:53:02.000Z</time>
      </trkpt>
      <trkpt lat="44.34608" lon="2.59445">
        <ele>632.59997558594</ele>
        <time>2011-12-27T09:53:07.000Z</time>
      </trkpt>
      <trkpt lat="44.34611" lon="2.59465">
        <ele>632.20001220703</ele>
        <time>2011-12-27T09:53:12.000Z</time>
      </trkpt>
      <trkpt lat="44.34614" lon="2.59484">
        <ele>631.79998779297</ele>
        <time>2011-12-27T09:53:17.000Z</time>
      </trkpt>
      <trkpt lat="44.34617" lon="2.59505">
        <ele>631.59997558594</ele>
        <time>2011-12-27T09:53:23.000Z</time>
      </trkpt>
      <trkpt lat="44.34621" lon="2.59523">
        <ele>631.40002441406</ele>
        <time>2011-12-27T09:53:28.000Z</time>
      </trkpt>
      <trkpt lat="44.34621" lon="2.59537">
        <ele>631.40002441406</ele>
        <time>2011-12-27T09:53:33.000Z</time>
      </trkpt>
      <trkpt lat="44.34627" lon="2.59552">
        <ele>631.20001220703</ele>
        <time>2011-12-27T09:53:38.000Z</time>
      </trkpt>
      <trkpt lat="44.34629" lon="2.59569">
        <ele>631</ele>
        <time>2011-12-27T09:53:43.000Z</time>
      </trkpt>
      <trkpt lat="44.34632" lon="2.59588">
        <ele>630.79998779297</ele>
        <time>2011-12-27T09:53:48.000Z</time>
      </trkpt>
      <trkpt lat="44.34633" lon="2.59602">
        <ele>630.59997558594</ele>
        <time>2011-12-27T09:53:53.000Z</time>
      </trkpt>
      <trkpt lat="44.34633" lon="2.59605">
        <ele>630.40002441406</ele>
        <time>2011-12-27T09:53:56.000Z</time>
      </trkpt>
      <trkpt lat="44.34635" lon="2.59605">
        <ele>630.40002441406</ele>
        <time>2011-12-27T09:53:58.000Z</time>
      </trkpt>
      <trkpt lat="44.34635" lon="2.59608">
        <ele>630.40002441406</ele>
        <time>2011-12-27T09:54:04.000Z</time>
      </trkpt>
      <trkpt lat="44.34635" lon="2.59611">
        <ele>630.40002441406</ele>
        <time>2011-12-27T09:54:09.000Z</time>
      </trkpt>
      <trkpt lat="44.34634" lon="2.59613">
        <ele>630.40002441406</ele>
        <time>2011-12-27T09:54:19.000Z</time>
      </trkpt>
      <trkpt lat="44.34633" lon="2.59615">
        <ele>630.40002441406</ele>
        <time>2011-12-27T09:54:25.000Z</time>
      </trkpt>
      <trkpt lat="44.34633" lon="2.59616">
        <ele>630.40002441406</ele>
        <time>2011-12-27T09:54:33.000Z</time>
      </trkpt>
      <trkpt lat="44.34633" lon="2.59618">
        <ele>630.40002441406</ele>
        <time>2011-12-27T09:54:38.000Z</time>
      </trkpt>
      <trkpt lat="44.34632" lon="2.59622">
        <ele>630.20001220703</ele>
        <time>2011-12-27T09:54:43.000Z</time>
      </trkpt>
      <trkpt lat="44.34634" lon="2.59636">
        <ele>630</ele>
        <time>2011-12-27T09:54:47.000Z</time>
      </trkpt>
      <trkpt lat="44.34637" lon="2.59654">
        <ele>629.79998779297</ele>
        <time>2011-12-27T09:54:53.000Z</time>
      </trkpt>
      <trkpt lat="44.3464" lon="2.59668">
        <ele>629.79998779297</ele>
        <time>2011-12-27T09:54:58.000Z</time>
      </trkpt>
      <trkpt lat="44.3464" lon="2.59671">
        <ele>629.79998779297</ele>
        <time>2011-12-27T09:55:02.000Z</time>
      </trkpt>
      <trkpt lat="44.3464" lon="2.59673">
        <ele>630</ele>
        <time>2011-12-27T09:55:14.000Z</time>
      </trkpt>
      <trkpt lat="44.3464" lon="2.59675">
        <ele>630</ele>
        <time>2011-12-27T09:55:22.000Z</time>
      </trkpt>
      <trkpt lat="44.3464" lon="2.59676">
        <ele>630</ele>
        <time>2011-12-27T09:55:33.000Z</time>
      </trkpt>
      <trkpt lat="44.34639" lon="2.59676">
        <ele>630</ele>
        <time>2011-12-27T09:55:40.000Z</time>
      </trkpt>
      <trkpt lat="44.34638" lon="2.59675">
        <ele>630</ele>
        <time>2011-12-27T09:56:00.000Z</time>
      </trkpt>
      <trkpt lat="44.34637" lon="2.59675">
        <ele>630</ele>
        <time>2011-12-27T09:56:33.000Z</time>
      </trkpt>
      <trkpt lat="44.3464" lon="2.59679">
        <ele>630.20001220703</ele>
        <time>2011-12-27T09:57:03.000Z</time>
      </trkpt>
      <trkpt lat="44.34642" lon="2.5969">
        <ele>630.59997558594</ele>
        <time>2011-12-27T09:57:07.000Z</time>
      </trkpt>
      <trkpt lat="44.34644" lon="2.59709">
        <ele>631.40002441406</ele>
        <time>2011-12-27T09:57:12.000Z</time>
      </trkpt>
      <trkpt lat="44.34647" lon="2.59712">
        <ele>631.59997558594</ele>
        <time>2011-12-27T09:57:15.000Z</time>
      </trkpt>
      <trkpt lat="44.34648" lon="2.59712">
        <ele>631.59997558594</ele>
        <time>2011-12-27T09:57:16.000Z</time>
      </trkpt>
      <trkpt lat="44.34653" lon="2.59708">
        <ele>631.59997558594</ele>
        <time>2011-12-27T09:57:23.000Z</time>
      </trkpt>
      <trkpt lat="44.34652" lon="2.59706">
        <ele>631.40002441406</ele>
        <time>2011-12-27T09:57:25.000Z</time>
      </trkpt>
      <trkpt lat="44.34654" lon="2.59702">
        <ele>631.40002441406</ele>
        <time>2011-12-27T09:57:27.000Z</time>
      </trkpt>
      <trkpt lat="44.34658" lon="2.5969">
        <ele>631</ele>
        <time>2011-12-27T09:57:31.000Z</time>
      </trkpt>
      <trkpt lat="44.34659" lon="2.59687">
        <ele>630.79998779297</ele>
        <time>2011-12-27T09:57:32.000Z</time>
      </trkpt>
      <trkpt lat="44.34662" lon="2.59674">
        <ele>630.20001220703</ele>
        <time>2011-12-27T09:57:36.000Z</time>
      </trkpt>
      <trkpt lat="44.34666" lon="2.59659">
        <ele>630</ele>
        <time>2011-12-27T09:57:41.000Z</time>
      </trkpt>
      <trkpt lat="44.34669" lon="2.59645">
        <ele>629.79998779297</ele>
        <time>2011-12-27T09:57:45.000Z</time>
      </trkpt>
      <trkpt lat="44.34673" lon="2.59633">
        <ele>629.59997558594</ele>
        <time>2011-12-27T09:57:49.000Z</time>
      </trkpt>
      <trkpt lat="44.34675" lon="2.59632">
        <ele>629.40002441406</ele>
        <time>2011-12-27T09:57:52.000Z</time>
      </trkpt>
      <trkpt lat="44.34676" lon="2.59632">
        <ele>629.20001220703</ele>
        <time>2011-12-27T09:57:53.000Z</time>
      </trkpt>
      <trkpt lat="44.34676" lon="2.59631">
        <ele>629.20001220703</ele>
        <time>2011-12-27T09:57:54.000Z</time>
      </trkpt>
      <trkpt lat="44.34678" lon="2.59626">
        <ele>629</ele>
        <time>2011-12-27T09:57:58.000Z</time>
      </trkpt>
      <trkpt lat="44.34679" lon="2.59623">
        <ele>629</ele>
        <time>2011-12-27T09:57:59.000Z</time>
      </trkpt>
      <trkpt lat="44.34681" lon="2.59612">
        <ele>628.79998779297</ele>
        <time>2011-12-27T09:58:02.000Z</time>
      </trkpt>
      <trkpt lat="44.34684" lon="2.59595">
        <ele>628.40002441406</ele>
        <time>2011-12-27T09:58:07.000Z</time>
      </trkpt>
      <trkpt lat="44.34687" lon="2.59578">
        <ele>628.20001220703</ele>
        <time>2011-12-27T09:58:12.000Z</time>
      </trkpt>
      <trkpt lat="44.34692" lon="2.59561">
        <ele>628</ele>
        <time>2011-12-27T09:58:17.000Z</time>
      </trkpt>
      <trkpt lat="44.34697" lon="2.59545">
        <ele>627.79998779297</ele>
        <time>2011-12-27T09:58:22.000Z</time>
      </trkpt>
      <trkpt lat="44.34704" lon="2.59529">
        <ele>627.40002441406</ele>
        <time>2011-12-27T09:58:27.000Z</time>
      </trkpt>
      <trkpt lat="44.34712" lon="2.59516">
        <ele>627</ele>
        <time>2011-12-27T09:58:32.000Z</time>
      </trkpt>
      <trkpt lat="44.34718" lon="2.595">
        <ele>626.59997558594</ele>
        <time>2011-12-27T09:58:37.000Z</time>
      </trkpt>
      <trkpt lat="44.34724" lon="2.59484">
        <ele>625.79998779297</ele>
        <time>2011-12-27T09:58:42.000Z</time>
      </trkpt>
      <trkpt lat="44.34732" lon="2.5947">
        <ele>624.79998779297</ele>
        <time>2011-12-27T09:58:47.000Z</time>
      </trkpt>
      <trkpt lat="44.34737" lon="2.59461">
        <ele>624.20001220703</ele>
        <time>2011-12-27T09:58:51.000Z</time>
      </trkpt>
      <trkpt lat="44.34746" lon="2.59448">
        <ele>623</ele>
        <time>2011-12-27T09:58:56.000Z</time>
      </trkpt>
      <trkpt lat="44.3475" lon="2.5944">
        <ele>622.59997558594</ele>
        <time>2011-12-27T09:58:59.000Z</time>
      </trkpt>
      <trkpt lat="44.34752" lon="2.59433">
        <ele>621.59997558594</ele>
        <time>2011-12-27T09:59:01.000Z</time>
      </trkpt>
      <trkpt lat="44.34759" lon="2.59414">
        <ele>618</ele>
        <time>2011-12-27T09:59:07.000Z</time>
      </trkpt>
      <trkpt lat="44.34757" lon="2.59397">
        <ele>616.40002441406</ele>
        <time>2011-12-27T09:59:12.000Z</time>
      </trkpt>
      <trkpt lat="44.34754" lon="2.59382">
        <ele>615.40002441406</ele>
        <time>2011-12-27T09:59:17.000Z</time>
      </trkpt>
      <trkpt lat="44.34749" lon="2.59366">
        <ele>614.79998779297</ele>
        <time>2011-12-27T09:59:22.000Z</time>
      </trkpt>
      <trkpt lat="44.34741" lon="2.59352">
        <ele>614.40002441406</ele>
        <time>2011-12-27T09:59:27.000Z</time>
      </trkpt>
      <trkpt lat="44.34734" lon="2.5934">
        <ele>614.59997558594</ele>
        <time>2011-12-27T09:59:32.000Z</time>
      </trkpt>
      <trkpt lat="44.34725" lon="2.59321">
        <ele>616.59997558594</ele>
        <time>2011-12-27T09:59:37.000Z</time>
      </trkpt>
      <trkpt lat="44.34722" lon="2.59304">
        <ele>618</ele>
        <time>2011-12-27T09:59:41.000Z</time>
      </trkpt>
      <trkpt lat="44.34729" lon="2.5929">
        <ele>617.20001220703</ele>
        <time>2011-12-27T09:59:45.000Z</time>
      </trkpt>
      <trkpt lat="44.34742" lon="2.59284">
        <ele>614.59997558594</ele>
        <time>2011-12-27T09:59:50.000Z</time>
      </trkpt>
      <trkpt lat="44.34756" lon="2.59274">
        <ele>611.40002441406</ele>
        <time>2011-12-27T09:59:55.000Z</time>
      </trkpt>
      <trkpt lat="44.34772" lon="2.59272">
        <ele>606.40002441406</ele>
        <time>2011-12-27T10:00:00.000Z</time>
      </trkpt>
      <trkpt lat="44.34785" lon="2.59261">
        <ele>602.59997558594</ele>
        <time>2011-12-27T10:00:05.000Z</time>
      </trkpt>
      <trkpt lat="44.34794" lon="2.59252">
        <ele>600.20001220703</ele>
        <time>2011-12-27T10:00:10.000Z</time>
      </trkpt>
      <trkpt lat="44.34799" lon="2.59242">
        <ele>600.20001220703</ele>
        <time>2011-12-27T10:00:14.000Z</time>
      </trkpt>
      <trkpt lat="44.34801" lon="2.59239">
        <ele>599.79998779297</ele>
        <time>2011-12-27T10:00:15.000Z</time>
      </trkpt>
      <trkpt lat="44.34812" lon="2.59224">
        <ele>599.20001220703</ele>
        <time>2011-12-27T10:00:21.000Z</time>
      </trkpt>
      <trkpt lat="44.34822" lon="2.5921">
        <ele>598.79998779297</ele>
        <time>2011-12-27T10:00:26.000Z</time>
      </trkpt>
      <trkpt lat="44.3483" lon="2.59198">
        <ele>598.59997558594</ele>
        <time>2011-12-27T10:00:30.000Z</time>
      </trkpt>
      <trkpt lat="44.34838" lon="2.59184">
        <ele>598.40002441406</ele>
        <time>2011-12-27T10:00:35.000Z</time>
      </trkpt>
      <trkpt lat="44.34852" lon="2.5917">
        <ele>594.79998779297</ele>
        <time>2011-12-27T10:00:40.000Z</time>
      </trkpt>
      <trkpt lat="44.3486" lon="2.59162">
        <ele>592</ele>
        <time>2011-12-27T10:00:44.000Z</time>
      </trkpt>
      <trkpt lat="44.3487" lon="2.59158">
        <ele>588.20001220703</ele>
        <time>2011-12-27T10:00:48.000Z</time>
      </trkpt>
      <trkpt lat="44.34881" lon="2.59156">
        <ele>583.20001220703</ele>
        <time>2011-12-27T10:00:53.000Z</time>
      </trkpt>
      <trkpt lat="44.34894" lon="2.59153">
        <ele>578</ele>
        <time>2011-12-27T10:00:59.000Z</time>
      </trkpt>
      <trkpt lat="44.34896" lon="2.59155">
        <ele>576.79998779297</ele>
        <time>2011-12-27T10:01:01.000Z</time>
      </trkpt>
      <trkpt lat="44.34895" lon="2.59158">
        <ele>576.59997558594</ele>
        <time>2011-12-27T10:01:03.000Z</time>
      </trkpt>
      <trkpt lat="44.34891" lon="2.59169">
        <ele>576.59997558594</ele>
        <time>2011-12-27T10:01:07.000Z</time>
      </trkpt>
      <trkpt lat="44.34887" lon="2.59179">
        <ele>577</ele>
        <time>2011-12-27T10:01:12.000Z</time>
      </trkpt>
      <trkpt lat="44.34885" lon="2.59181">
        <ele>577.59997558594</ele>
        <time>2011-12-27T10:01:18.000Z</time>
      </trkpt>
      <trkpt lat="44.34881" lon="2.59184">
        <ele>578.40002441406</ele>
        <time>2011-12-27T10:01:21.000Z</time>
      </trkpt>
      <trkpt lat="44.34878" lon="2.59186">
        <ele>579.40002441406</ele>
        <time>2011-12-27T10:01:23.000Z</time>
      </trkpt>
      <trkpt lat="44.34871" lon="2.59188">
        <ele>582.40002441406</ele>
        <time>2011-12-27T10:01:28.000Z</time>
      </trkpt>
      <trkpt lat="44.34872" lon="2.5919">
        <ele>581.59997558594</ele>
        <time>2011-12-27T10:01:29.000Z</time>
      </trkpt>
      <trkpt lat="44.34868" lon="2.59194">
        <ele>583</ele>
        <time>2011-12-27T10:01:34.000Z</time>
      </trkpt>
      <trkpt lat="44.34867" lon="2.59199">
        <ele>582.40002441406</ele>
        <time>2011-12-27T10:01:38.000Z</time>
      </trkpt>
      <trkpt lat="44.34865" lon="2.59201">
        <ele>582.59997558594</ele>
        <time>2011-12-27T10:01:39.000Z</time>
      </trkpt>
      <trkpt lat="44.34866" lon="2.59212">
        <ele>580.40002441406</ele>
        <time>2011-12-27T10:01:43.000Z</time>
      </trkpt>
      <trkpt lat="44.34866" lon="2.59214">
        <ele>580</ele>
        <time>2011-12-27T10:01:44.000Z</time>
      </trkpt>
      <trkpt lat="44.34861" lon="2.59231">
        <ele>579</ele>
        <time>2011-12-27T10:01:50.000Z</time>
      </trkpt>
      <trkpt lat="44.34859" lon="2.59242">
        <ele>577.59997558594</ele>
        <time>2011-12-27T10:01:54.000Z</time>
      </trkpt>
      <trkpt lat="44.34861" lon="2.59252">
        <ele>575.20001220703</ele>
        <time>2011-12-27T10:01:58.000Z</time>
      </trkpt>
      <trkpt lat="44.34862" lon="2.59256">
        <ele>574.59997558594</ele>
        <time>2011-12-27T10:02:00.000Z</time>
      </trkpt>
      <trkpt lat="44.34862" lon="2.5926">
        <ele>574.40002441406</ele>
        <time>2011-12-27T10:02:02.000Z</time>
      </trkpt>
      <trkpt lat="44.34863" lon="2.59269">
        <ele>573.40002441406</ele>
        <time>2011-12-27T10:02:06.000Z</time>
      </trkpt>
      <trkpt lat="44.34862" lon="2.59277">
        <ele>573.20001220703</ele>
        <time>2011-12-27T10:02:08.000Z</time>
      </trkpt>
      <trkpt lat="44.34863" lon="2.59285">
        <ele>572.40002441406</ele>
        <time>2011-12-27T10:02:10.000Z</time>
      </trkpt>
      <trkpt lat="44.34861" lon="2.59302">
        <ele>572</ele>
        <time>2011-12-27T10:02:15.000Z</time>
      </trkpt>
      <trkpt lat="44.34863" lon="2.59311">
        <ele>570.40002441406</ele>
        <time>2011-12-27T10:02:20.000Z</time>
      </trkpt>
      <trkpt lat="44.34861" lon="2.59327">
        <ele>570.59997558594</ele>
        <time>2011-12-27T10:02:26.000Z</time>
      </trkpt>
      <trkpt lat="44.3486" lon="2.59346">
        <ele>570.79998779297</ele>
        <time>2011-12-27T10:02:31.000Z</time>
      </trkpt>
      <trkpt lat="44.34859" lon="2.59354">
        <ele>571.20001220703</ele>
        <time>2011-12-27T10:02:33.000Z</time>
      </trkpt>
      <trkpt lat="44.34859" lon="2.5936">
        <ele>571.20001220703</ele>
        <time>2011-12-27T10:02:35.000Z</time>
      </trkpt>
      <trkpt lat="44.34859" lon="2.59373">
        <ele>571.40002441406</ele>
        <time>2011-12-27T10:02:40.000Z</time>
      </trkpt>
      <trkpt lat="44.34858" lon="2.59386">
        <ele>572</ele>
        <time>2011-12-27T10:02:44.000Z</time>
      </trkpt>
      <trkpt lat="44.34856" lon="2.59394">
        <ele>573.40002441406</ele>
        <time>2011-12-27T10:02:48.000Z</time>
      </trkpt>
      <trkpt lat="44.34854" lon="2.59395">
        <ele>574.40002441406</ele>
        <time>2011-12-27T10:02:49.000Z</time>
      </trkpt>
      <trkpt lat="44.34856" lon="2.59401">
        <ele>573.59997558594</ele>
        <time>2011-12-27T10:02:53.000Z</time>
      </trkpt>
      <trkpt lat="44.34857" lon="2.59403">
        <ele>573</ele>
        <time>2011-12-27T10:02:54.000Z</time>
      </trkpt>
      <trkpt lat="44.34859" lon="2.59411">
        <ele>572.20001220703</ele>
        <time>2011-12-27T10:02:58.000Z</time>
      </trkpt>
      <trkpt lat="44.3486" lon="2.59413">
        <ele>571.20001220703</ele>
        <time>2011-12-27T10:03:00.000Z</time>
      </trkpt>
      <trkpt lat="44.34861" lon="2.59414">
        <ele>570.59997558594</ele>
        <time>2011-12-27T10:03:02.000Z</time>
      </trkpt>
      <trkpt lat="44.34862" lon="2.59416">
        <ele>570.40002441406</ele>
        <time>2011-12-27T10:03:05.000Z</time>
      </trkpt>
      <trkpt lat="44.34863" lon="2.59425">
        <ele>570.20001220703</ele>
        <time>2011-12-27T10:03:09.000Z</time>
      </trkpt>
      <trkpt lat="44.34863" lon="2.59428">
        <ele>570</ele>
        <time>2011-12-27T10:03:10.000Z</time>
      </trkpt>
      <trkpt lat="44.34863" lon="2.5944">
        <ele>570.79998779297</ele>
        <time>2011-12-27T10:03:14.000Z</time>
      </trkpt>
      <trkpt lat="44.34864" lon="2.59441">
        <ele>570.59997558594</ele>
        <time>2011-12-27T10:03:15.000Z</time>
      </trkpt>
      <trkpt lat="44.34864" lon="2.59451">
        <ele>571.20001220703</ele>
        <time>2011-12-27T10:03:18.000Z</time>
      </trkpt>
      <trkpt lat="44.34865" lon="2.59467">
        <ele>571.20001220703</ele>
        <time>2011-12-27T10:03:24.000Z</time>
      </trkpt>
      <trkpt lat="44.34866" lon="2.5948">
        <ele>571.40002441406</ele>
        <time>2011-12-27T10:03:28.000Z</time>
      </trkpt>
      <trkpt lat="44.34867" lon="2.59482">
        <ele>570.79998779297</ele>
        <time>2011-12-27T10:03:29.000Z</time>
      </trkpt>
      <trkpt lat="44.34865" lon="2.59488">
        <ele>572</ele>
        <time>2011-12-27T10:03:32.000Z</time>
      </trkpt>
      <trkpt lat="44.34866" lon="2.59504">
        <ele>572.59997558594</ele>
        <time>2011-12-27T10:03:37.000Z</time>
      </trkpt>
      <trkpt lat="44.34866" lon="2.59504">
        <ele>572.79998779297</ele>
        <time>2011-12-27T10:03:38.000Z</time>
      </trkpt>
      <trkpt lat="44.34866" lon="2.59505">
        <ele>573</ele>
        <time>2011-12-27T10:03:40.000Z</time>
      </trkpt>
      <trkpt lat="44.34866" lon="2.59507">
        <ele>573</ele>
        <time>2011-12-27T10:03:41.000Z</time>
      </trkpt>
      <trkpt lat="44.34865" lon="2.59512">
        <ele>574.20001220703</ele>
        <time>2011-12-27T10:03:45.000Z</time>
      </trkpt>
      <trkpt lat="44.34864" lon="2.59516">
        <ele>575.40002441406</ele>
        <time>2011-12-27T10:03:48.000Z</time>
      </trkpt>
      <trkpt lat="44.34864" lon="2.59524">
        <ele>576.20001220703</ele>
        <time>2011-12-27T10:03:52.000Z</time>
      </trkpt>
      <trkpt lat="44.34865" lon="2.5953">
        <ele>576.20001220703</ele>
        <time>2011-12-27T10:03:54.000Z</time>
      </trkpt>
      <trkpt lat="44.34865" lon="2.59536">
        <ele>576.59997558594</ele>
        <time>2011-12-27T10:03:56.000Z</time>
      </trkpt>
      <trkpt lat="44.34868" lon="2.59545">
        <ele>576.20001220703</ele>
        <time>2011-12-27T10:04:01.000Z</time>
      </trkpt>
      <trkpt lat="44.34869" lon="2.59549">
        <ele>575.79998779297</ele>
        <time>2011-12-27T10:04:04.000Z</time>
      </trkpt>
      <trkpt lat="44.3487" lon="2.59554">
        <ele>575.79998779297</ele>
        <time>2011-12-27T10:04:07.000Z</time>
      </trkpt>
      <trkpt lat="44.3487" lon="2.59556">
        <ele>576.20001220703</ele>
        <time>2011-12-27T10:04:08.000Z</time>
      </trkpt>
      <trkpt lat="44.3487" lon="2.59563">
        <ele>577</ele>
        <time>2011-12-27T10:04:13.000Z</time>
      </trkpt>
      <trkpt lat="44.3487" lon="2.59574">
        <ele>577.79998779297</ele>
        <time>2011-12-27T10:04:19.000Z</time>
      </trkpt>
      <trkpt lat="44.34871" lon="2.59576">
        <ele>577.79998779297</ele>
        <time>2011-12-27T10:04:21.000Z</time>
      </trkpt>
      <trkpt lat="44.3487" lon="2.59579">
        <ele>578.59997558594</ele>
        <time>2011-12-27T10:04:24.000Z</time>
      </trkpt>
      <trkpt lat="44.3487" lon="2.59589">
        <ele>579.59997558594</ele>
        <time>2011-12-27T10:04:29.000Z</time>
      </trkpt>
      <trkpt lat="44.3487" lon="2.59591">
        <ele>579.59997558594</ele>
        <time>2011-12-27T10:04:30.000Z</time>
      </trkpt>
      <trkpt lat="44.34871" lon="2.59594">
        <ele>579.40002441406</ele>
        <time>2011-12-27T10:04:32.000Z</time>
      </trkpt>
      <trkpt lat="44.34873" lon="2.59599">
        <ele>578.59997558594</ele>
        <time>2011-12-27T10:04:35.000Z</time>
      </trkpt>
      <trkpt lat="44.34873" lon="2.59599">
        <ele>578.59997558594</ele>
        <time>2011-12-27T10:04:36.000Z</time>
      </trkpt>
      <trkpt lat="44.34872" lon="2.59608">
        <ele>580</ele>
        <time>2011-12-27T10:04:40.000Z</time>
      </trkpt>
      <trkpt lat="44.34872" lon="2.59612">
        <ele>580.40002441406</ele>
        <time>2011-12-27T10:04:42.000Z</time>
      </trkpt>
      <trkpt lat="44.34871" lon="2.59621">
        <ele>581.59997558594</ele>
        <time>2011-12-27T10:04:45.000Z</time>
      </trkpt>
      <trkpt lat="44.34869" lon="2.59633">
        <ele>584</ele>
        <time>2011-12-27T10:04:50.000Z</time>
      </trkpt>
      <trkpt lat="44.3487" lon="2.59643">
        <ele>584.40002441406</ele>
        <time>2011-12-27T10:04:55.000Z</time>
      </trkpt>
      <trkpt lat="44.3488" lon="2.59653">
        <ele>580</ele>
        <time>2011-12-27T10:05:00.000Z</time>
      </trkpt>
      <trkpt lat="44.34884" lon="2.59656">
        <ele>578.20001220703</ele>
        <time>2011-12-27T10:05:02.000Z</time>
      </trkpt>
      <trkpt lat="44.34887" lon="2.59661">
        <ele>577.59997558594</ele>
        <time>2011-12-27T10:05:04.000Z</time>
      </trkpt>
      <trkpt lat="44.34892" lon="2.59673">
        <ele>575.40002441406</ele>
        <time>2011-12-27T10:05:09.000Z</time>
      </trkpt>
      <trkpt lat="44.34894" lon="2.5968">
        <ele>575</ele>
        <time>2011-12-27T10:05:12.000Z</time>
      </trkpt>
      <trkpt lat="44.34895" lon="2.59681">
        <ele>574.20001220703</ele>
        <time>2011-12-27T10:05:13.000Z</time>
      </trkpt>
      <trkpt lat="44.34896" lon="2.59683">
        <ele>573.79998779297</ele>
        <time>2011-12-27T10:05:14.000Z</time>
      </trkpt>
      <trkpt lat="44.349" lon="2.5969">
        <ele>572</ele>
        <time>2011-12-27T10:05:18.000Z</time>
      </trkpt>
      <trkpt lat="44.34897" lon="2.59698">
        <ele>573.59997558594</ele>
        <time>2011-12-27T10:05:22.000Z</time>
      </trkpt>
      <trkpt lat="44.34897" lon="2.59701">
        <ele>574</ele>
        <time>2011-12-27T10:05:23.000Z</time>
      </trkpt>
      <trkpt lat="44.34893" lon="2.59714">
        <ele>576</ele>
        <time>2011-12-27T10:05:28.000Z</time>
      </trkpt>
      <trkpt lat="44.34889" lon="2.59721">
        <ele>578.59997558594</ele>
        <time>2011-12-27T10:05:32.000Z</time>
      </trkpt>
      <trkpt lat="44.34888" lon="2.59722">
        <ele>578.79998779297</ele>
        <time>2011-12-27T10:05:33.000Z</time>
      </trkpt>
      <trkpt lat="44.34886" lon="2.59731">
        <ele>580.40002441406</ele>
        <time>2011-12-27T10:05:37.000Z</time>
      </trkpt>
      <trkpt lat="44.34885" lon="2.59733">
        <ele>581</ele>
        <time>2011-12-27T10:05:38.000Z</time>
      </trkpt>
      <trkpt lat="44.34876" lon="2.59741">
        <ele>585.40002441406</ele>
        <time>2011-12-27T10:05:44.000Z</time>
      </trkpt>
      <trkpt lat="44.34871" lon="2.59752">
        <ele>588.40002441406</ele>
        <time>2011-12-27T10:05:50.000Z</time>
      </trkpt>
      <trkpt lat="44.34871" lon="2.59769">
        <ele>588.79998779297</ele>
        <time>2011-12-27T10:05:55.000Z</time>
      </trkpt>
      <trkpt lat="44.34872" lon="2.59771">
        <ele>588.40002441406</ele>
        <time>2011-12-27T10:05:56.000Z</time>
      </trkpt>
      <trkpt lat="44.34873" lon="2.59781">
        <ele>588.20001220703</ele>
        <time>2011-12-27T10:05:59.000Z</time>
      </trkpt>
      <trkpt lat="44.34874" lon="2.59784">
        <ele>588</ele>
        <time>2011-12-27T10:06:00.000Z</time>
      </trkpt>
      <trkpt lat="44.34875" lon="2.59794">
        <ele>587.40002441406</ele>
        <time>2011-12-27T10:06:04.000Z</time>
      </trkpt>
      <trkpt lat="44.3488" lon="2.5981">
        <ele>585.59997558594</ele>
        <time>2011-12-27T10:06:09.000Z</time>
      </trkpt>
      <trkpt lat="44.34879" lon="2.59812">
        <ele>586</ele>
        <time>2011-12-27T10:06:10.000Z</time>
      </trkpt>
      <trkpt lat="44.34879" lon="2.59823">
        <ele>586.20001220703</ele>
        <time>2011-12-27T10:06:14.000Z</time>
      </trkpt>
      <trkpt lat="44.34879" lon="2.5984">
        <ele>586.79998779297</ele>
        <time>2011-12-27T10:06:19.000Z</time>
      </trkpt>
      <trkpt lat="44.34878" lon="2.59842">
        <ele>587.20001220703</ele>
        <time>2011-12-27T10:06:20.000Z</time>
      </trkpt>
      <trkpt lat="44.34874" lon="2.59854">
        <ele>588.79998779297</ele>
        <time>2011-12-27T10:06:24.000Z</time>
      </trkpt>
      <trkpt lat="44.34873" lon="2.59859">
        <ele>589.40002441406</ele>
        <time>2011-12-27T10:06:27.000Z</time>
      </trkpt>
      <trkpt lat="44.34873" lon="2.59862">
        <ele>589.40002441406</ele>
        <time>2011-12-27T10:06:30.000Z</time>
      </trkpt>
      <trkpt lat="44.34872" lon="2.59864">
        <ele>589.59997558594</ele>
        <time>2011-12-27T10:06:37.000Z</time>
      </trkpt>
      <trkpt lat="44.34872" lon="2.59863">
        <ele>589.79998779297</ele>
        <time>2011-12-27T10:06:42.000Z</time>
      </trkpt>
      <trkpt lat="44.34875" lon="2.59858">
        <ele>588.59997558594</ele>
        <time>2011-12-27T10:06:50.000Z</time>
      </trkpt>
      <trkpt lat="44.34876" lon="2.59858">
        <ele>588.20001220703</ele>
        <time>2011-12-27T10:06:51.000Z</time>
      </trkpt>
      <trkpt lat="44.34878" lon="2.59861">
        <ele>587.20001220703</ele>
        <time>2011-12-27T10:06:59.000Z</time>
      </trkpt>
      <trkpt lat="44.34879" lon="2.59864">
        <ele>586.79998779297</ele>
        <time>2011-12-27T10:07:03.000Z</time>
      </trkpt>
      <trkpt lat="44.3488" lon="2.59865">
        <ele>586.40002441406</ele>
        <time>2011-12-27T10:07:04.000Z</time>
      </trkpt>
      <trkpt lat="44.3488" lon="2.59864">
        <ele>586.59997558594</ele>
        <time>2011-12-27T10:07:10.000Z</time>
      </trkpt>
      <trkpt lat="44.34879" lon="2.59858">
        <ele>586.59997558594</ele>
        <time>2011-12-27T10:07:15.000Z</time>
      </trkpt>
      <trkpt lat="44.3488" lon="2.59851">
        <ele>586.40002441406</ele>
        <time>2011-12-27T10:07:19.000Z</time>
      </trkpt>
      <trkpt lat="44.3488" lon="2.59848">
        <ele>586.40002441406</ele>
        <time>2011-12-27T10:07:21.000Z</time>
      </trkpt>
      <trkpt lat="44.34882" lon="2.59841">
        <ele>585.20001220703</ele>
        <time>2011-12-27T10:07:26.000Z</time>
      </trkpt>
      <trkpt lat="44.34883" lon="2.59841">
        <ele>585.20001220703</ele>
        <time>2011-12-27T10:07:27.000Z</time>
      </trkpt>
      <trkpt lat="44.34883" lon="2.59837">
        <ele>584.79998779297</ele>
        <time>2011-12-27T10:07:31.000Z</time>
      </trkpt>
      <trkpt lat="44.34884" lon="2.59836">
        <ele>584.59997558594</ele>
        <time>2011-12-27T10:07:33.000Z</time>
      </trkpt>
      <trkpt lat="44.3489" lon="2.59828">
        <ele>581.59997558594</ele>
        <time>2011-12-27T10:07:38.000Z</time>
      </trkpt>
      <trkpt lat="44.34895" lon="2.59823">
        <ele>579.40002441406</ele>
        <time>2011-12-27T10:07:41.000Z</time>
      </trkpt>
      <trkpt lat="44.34897" lon="2.59815">
        <ele>577.79998779297</ele>
        <time>2011-12-27T10:07:44.000Z</time>
      </trkpt>
      <trkpt lat="44.34899" lon="2.59808">
        <ele>576.59997558594</ele>
        <time>2011-12-27T10:07:47.000Z</time>
      </trkpt>
      <trkpt lat="44.34901" lon="2.59803">
        <ele>575.40002441406</ele>
        <time>2011-12-27T10:07:49.000Z</time>
      </trkpt>
      <trkpt lat="44.34901" lon="2.59801">
        <ele>575.40002441406</ele>
        <time>2011-12-27T10:07:50.000Z</time>
      </trkpt>
      <trkpt lat="44.34906" lon="2.59794">
        <ele>572.79998779297</ele>
        <time>2011-12-27T10:07:53.000Z</time>
      </trkpt>
      <trkpt lat="44.34909" lon="2.5979">
        <ele>571.20001220703</ele>
        <time>2011-12-27T10:07:55.000Z</time>
      </trkpt>
      <trkpt lat="44.34914" lon="2.59781">
        <ele>568</ele>
        <time>2011-12-27T10:07:59.000Z</time>
      </trkpt>
      <trkpt lat="44.34916" lon="2.59774">
        <ele>566.59997558594</ele>
        <time>2011-12-27T10:08:02.000Z</time>
      </trkpt>
      <trkpt lat="44.34918" lon="2.59769">
        <ele>565.79998779297</ele>
        <time>2011-12-27T10:08:04.000Z</time>
      </trkpt>
      <trkpt lat="44.34924" lon="2.59756">
        <ele>563.40002441406</ele>
        <time>2011-12-27T10:08:08.000Z</time>
      </trkpt>
      <trkpt lat="44.34932" lon="2.59739">
        <ele>560.40002441406</ele>
        <time>2011-12-27T10:08:13.000Z</time>
      </trkpt>
      <trkpt lat="44.34939" lon="2.59718">
        <ele>557.40002441406</ele>
        <time>2011-12-27T10:08:20.000Z</time>
      </trkpt>
      <trkpt lat="44.34942" lon="2.59705">
        <ele>555.79998779297</ele>
        <time>2011-12-27T10:08:25.000Z</time>
      </trkpt>
      <trkpt lat="44.34943" lon="2.59702">
        <ele>555.40002441406</ele>
        <time>2011-12-27T10:08:27.000Z</time>
      </trkpt>
      <trkpt lat="44.34945" lon="2.59701">
        <ele>554.40002441406</ele>
        <time>2011-12-27T10:08:30.000Z</time>
      </trkpt>
      <trkpt lat="44.34948" lon="2.59696">
        <ele>553.40002441406</ele>
        <time>2011-12-27T10:08:37.000Z</time>
      </trkpt>
      <trkpt lat="44.3495" lon="2.59691">
        <ele>552.20001220703</ele>
        <time>2011-12-27T10:08:41.000Z</time>
      </trkpt>
      <trkpt lat="44.34954" lon="2.59696">
        <ele>551.20001220703</ele>
        <time>2011-12-27T10:08:43.000Z</time>
      </trkpt>
      <trkpt lat="44.34962" lon="2.59706">
        <ele>549.40002441406</ele>
        <time>2011-12-27T10:08:50.000Z</time>
      </trkpt>
      <trkpt lat="44.34967" lon="2.59718">
        <ele>548.79998779297</ele>
        <time>2011-12-27T10:08:54.000Z</time>
      </trkpt>
      <trkpt lat="44.34969" lon="2.59722">
        <ele>548.59997558594</ele>
        <time>2011-12-27T10:08:55.000Z</time>
      </trkpt>
      <trkpt lat="44.34982" lon="2.59743">
        <ele>546.79998779297</ele>
        <time>2011-12-27T10:09:01.000Z</time>
      </trkpt>
      <trkpt lat="44.34991" lon="2.59755">
        <ele>546.20001220703</ele>
        <time>2011-12-27T10:09:06.000Z</time>
      </trkpt>
      <trkpt lat="44.35006" lon="2.59763">
        <ele>544.79998779297</ele>
        <time>2011-12-27T10:09:12.000Z</time>
      </trkpt>
      <trkpt lat="44.35019" lon="2.59766">
        <ele>544</ele>
        <time>2011-12-27T10:09:17.000Z</time>
      </trkpt>
      <trkpt lat="44.35033" lon="2.59765">
        <ele>542.40002441406</ele>
        <time>2011-12-27T10:09:22.000Z</time>
      </trkpt>
      <trkpt lat="44.35046" lon="2.5976">
        <ele>540.59997558594</ele>
        <time>2011-12-27T10:09:26.000Z</time>
      </trkpt>
      <trkpt lat="44.35062" lon="2.59752">
        <ele>537.40002441406</ele>
        <time>2011-12-27T10:09:32.000Z</time>
      </trkpt>
      <trkpt lat="44.35079" lon="2.59741">
        <ele>535</ele>
        <time>2011-12-27T10:09:38.000Z</time>
      </trkpt>
      <trkpt lat="44.35095" lon="2.59728">
        <ele>535.40002441406</ele>
        <time>2011-12-27T10:09:44.000Z</time>
      </trkpt>
      <trkpt lat="44.35107" lon="2.59715">
        <ele>536</ele>
        <time>2011-12-27T10:09:49.000Z</time>
      </trkpt>
      <trkpt lat="44.35117" lon="2.59706">
        <ele>536.40002441406</ele>
        <time>2011-12-27T10:09:53.000Z</time>
      </trkpt>
      <trkpt lat="44.35127" lon="2.59691">
        <ele>536.40002441406</ele>
        <time>2011-12-27T10:09:58.000Z</time>
      </trkpt>
      <trkpt lat="44.35141" lon="2.59675">
        <ele>536.40002441406</ele>
        <time>2011-12-27T10:10:04.000Z</time>
      </trkpt>
      <trkpt lat="44.35153" lon="2.59661">
        <ele>536.59997558594</ele>
        <time>2011-12-27T10:10:09.000Z</time>
      </trkpt>
      <trkpt lat="44.35169" lon="2.59645">
        <ele>537.40002441406</ele>
        <time>2011-12-27T10:10:15.000Z</time>
      </trkpt>
      <trkpt lat="44.35178" lon="2.59635">
        <ele>538.79998779297</ele>
        <time>2011-12-27T10:10:18.000Z</time>
      </trkpt>
      <trkpt lat="44.35182" lon="2.5963">
        <ele>539.59997558594</ele>
        <time>2011-12-27T10:10:20.000Z</time>
      </trkpt>
      <trkpt lat="44.35198" lon="2.59614">
        <ele>541.20001220703</ele>
        <time>2011-12-27T10:10:26.000Z</time>
      </trkpt>
      <trkpt lat="44.35212" lon="2.59597">
        <ele>541.59997558594</ele>
        <time>2011-12-27T10:10:32.000Z</time>
      </trkpt>
      <trkpt lat="44.35224" lon="2.5958">
        <ele>541.40002441406</ele>
        <time>2011-12-27T10:10:38.000Z</time>
      </trkpt>
      <trkpt lat="44.35235" lon="2.59564">
        <ele>541.59997558594</ele>
        <time>2011-12-27T10:10:43.000Z</time>
      </trkpt>
      <trkpt lat="44.35247" lon="2.59548">
        <ele>541</ele>
        <time>2011-12-27T10:10:49.000Z</time>
      </trkpt>
      <trkpt lat="44.35257" lon="2.59533">
        <ele>540.79998779297</ele>
        <time>2011-12-27T10:10:54.000Z</time>
      </trkpt>
      <trkpt lat="44.35268" lon="2.59519">
        <ele>540.79998779297</ele>
        <time>2011-12-27T10:10:59.000Z</time>
      </trkpt>
      <trkpt lat="44.35283" lon="2.59503">
        <ele>540.79998779297</ele>
        <time>2011-12-27T10:11:05.000Z</time>
      </trkpt>
      <trkpt lat="44.35286" lon="2.59501">
        <ele>540.79998779297</ele>
        <time>2011-12-27T10:11:06.000Z</time>
      </trkpt>
      <trkpt lat="44.35301" lon="2.59483">
        <ele>542.40002441406</ele>
        <time>2011-12-27T10:11:13.000Z</time>
      </trkpt>
      <trkpt lat="44.35314" lon="2.59468">
        <ele>542.59997558594</ele>
        <time>2011-12-27T10:11:19.000Z</time>
      </trkpt>
      <trkpt lat="44.35326" lon="2.59454">
        <ele>542</ele>
        <time>2011-12-27T10:11:25.000Z</time>
      </trkpt>
      <trkpt lat="44.35341" lon="2.59437">
        <ele>540.79998779297</ele>
        <time>2011-12-27T10:11:32.000Z</time>
      </trkpt>
      <trkpt lat="44.35356" lon="2.59421">
        <ele>540.20001220703</ele>
        <time>2011-12-27T10:11:39.000Z</time>
      </trkpt>
      <trkpt lat="44.35368" lon="2.59406">
        <ele>540.40002441406</ele>
        <time>2011-12-27T10:11:45.000Z</time>
      </trkpt>
      <trkpt lat="44.35377" lon="2.59397">
        <ele>540.59997558594</ele>
        <time>2011-12-27T10:11:49.000Z</time>
      </trkpt>
      <trkpt lat="44.35389" lon="2.59384">
        <ele>540.20001220703</ele>
        <time>2011-12-27T10:11:54.000Z</time>
      </trkpt>
      <trkpt lat="44.35398" lon="2.59371">
        <ele>539.40002441406</ele>
        <time>2011-12-27T10:11:59.000Z</time>
      </trkpt>
      <trkpt lat="44.35407" lon="2.59361">
        <ele>538.40002441406</ele>
        <time>2011-12-27T10:12:03.000Z</time>
      </trkpt>
      <trkpt lat="44.35421" lon="2.59345">
        <ele>536.20001220703</ele>
        <time>2011-12-27T10:12:09.000Z</time>
      </trkpt>
      <trkpt lat="44.35433" lon="2.59332">
        <ele>535</ele>
        <time>2011-12-27T10:12:14.000Z</time>
      </trkpt>
      <trkpt lat="44.35452" lon="2.5932">
        <ele>534.59997558594</ele>
        <time>2011-12-27T10:12:21.000Z</time>
      </trkpt>
      <trkpt lat="44.35469" lon="2.59305">
        <ele>533.79998779297</ele>
        <time>2011-12-27T10:12:27.000Z</time>
      </trkpt>
      <trkpt lat="44.35486" lon="2.59294">
        <ele>532.59997558594</ele>
        <time>2011-12-27T10:12:33.000Z</time>
      </trkpt>
      <trkpt lat="44.35504" lon="2.59292">
        <ele>532</ele>
        <time>2011-12-27T10:12:38.000Z</time>
      </trkpt>
      <trkpt lat="44.35507" lon="2.59292">
        <ele>532.20001220703</ele>
        <time>2011-12-27T10:12:39.000Z</time>
      </trkpt>
      <trkpt lat="44.35525" lon="2.59298">
        <ele>532.59997558594</ele>
        <time>2011-12-27T10:12:45.000Z</time>
      </trkpt>
      <trkpt lat="44.35538" lon="2.59306">
        <ele>533</ele>
        <time>2011-12-27T10:12:50.000Z</time>
      </trkpt>
      <trkpt lat="44.35556" lon="2.59319">
        <ele>533.40002441406</ele>
        <time>2011-12-27T10:12:56.000Z</time>
      </trkpt>
      <trkpt lat="44.35569" lon="2.59337">
        <ele>533.59997558594</ele>
        <time>2011-12-27T10:13:02.000Z</time>
      </trkpt>
      <trkpt lat="44.35579" lon="2.59353">
        <ele>534.59997558594</ele>
        <time>2011-12-27T10:13:07.000Z</time>
      </trkpt>
      <trkpt lat="44.35589" lon="2.59368">
        <ele>535.20001220703</ele>
        <time>2011-12-27T10:13:12.000Z</time>
      </trkpt>
      <trkpt lat="44.35602" lon="2.59387">
        <ele>535.40002441406</ele>
        <time>2011-12-27T10:13:18.000Z</time>
      </trkpt>
      <trkpt lat="44.35603" lon="2.59391">
        <ele>535.59997558594</ele>
        <time>2011-12-27T10:13:19.000Z</time>
      </trkpt>
      <trkpt lat="44.35612" lon="2.59408">
        <ele>535.79998779297</ele>
        <time>2011-12-27T10:13:24.000Z</time>
      </trkpt>
      <trkpt lat="44.35623" lon="2.59428">
        <ele>535.79998779297</ele>
        <time>2011-12-27T10:13:30.000Z</time>
      </trkpt>
      <trkpt lat="44.35631" lon="2.5945">
        <ele>536.20001220703</ele>
        <time>2011-12-27T10:13:36.000Z</time>
      </trkpt>
      <trkpt lat="44.35634" lon="2.59468">
        <ele>536.59997558594</ele>
        <time>2011-12-27T10:13:41.000Z</time>
      </trkpt>
      <trkpt lat="44.35635" lon="2.59488">
        <ele>537.59997558594</ele>
        <time>2011-12-27T10:13:46.000Z</time>
      </trkpt>
      <trkpt lat="44.35637" lon="2.59507">
        <ele>538</ele>
        <time>2011-12-27T10:13:51.000Z</time>
      </trkpt>
      <trkpt lat="44.35639" lon="2.59525">
        <ele>538.20001220703</ele>
        <time>2011-12-27T10:13:56.000Z</time>
      </trkpt>
      <trkpt lat="44.35643" lon="2.59552">
        <ele>538.40002441406</ele>
        <time>2011-12-27T10:14:03.000Z</time>
      </trkpt>
      <trkpt lat="44.35646" lon="2.59578">
        <ele>538.59997558594</ele>
        <time>2011-12-27T10:14:10.000Z</time>
      </trkpt>
      <trkpt lat="44.35647" lon="2.59596">
        <ele>538.59997558594</ele>
        <time>2011-12-27T10:14:15.000Z</time>
      </trkpt>
      <trkpt lat="44.35648" lon="2.59614">
        <ele>538.79998779297</ele>
        <time>2011-12-27T10:14:20.000Z</time>
      </trkpt>
      <trkpt lat="44.35648" lon="2.59632">
        <ele>539</ele>
        <time>2011-12-27T10:14:25.000Z</time>
      </trkpt>
      <trkpt lat="44.35649" lon="2.59651">
        <ele>539.20001220703</ele>
        <time>2011-12-27T10:14:30.000Z</time>
      </trkpt>
      <trkpt lat="44.35648" lon="2.59677">
        <ele>539.59997558594</ele>
        <time>2011-12-27T10:14:37.000Z</time>
      </trkpt>
      <trkpt lat="44.35649" lon="2.59681">
        <ele>539.40002441406</ele>
        <time>2011-12-27T10:14:38.000Z</time>
      </trkpt>
      <trkpt lat="44.35652" lon="2.59704">
        <ele>538.79998779297</ele>
        <time>2011-12-27T10:14:44.000Z</time>
      </trkpt>
      <trkpt lat="44.35655" lon="2.59727">
        <ele>538.20001220703</ele>
        <time>2011-12-27T10:14:50.000Z</time>
      </trkpt>
      <trkpt lat="44.35659" lon="2.59747">
        <ele>537.40002441406</ele>
        <time>2011-12-27T10:14:56.000Z</time>
      </trkpt>
      <trkpt lat="44.35662" lon="2.59748">
        <ele>537</ele>
        <time>2011-12-27T10:14:57.000Z</time>
      </trkpt>
      <trkpt lat="44.35668" lon="2.59751">
        <ele>536</ele>
        <time>2011-12-27T10:15:00.000Z</time>
      </trkpt>
      <trkpt lat="44.3567" lon="2.59751">
        <ele>535.79998779297</ele>
        <time>2011-12-27T10:15:01.000Z</time>
      </trkpt>
      <trkpt lat="44.35678" lon="2.59746">
        <ele>535.20001220703</ele>
        <time>2011-12-27T10:15:05.000Z</time>
      </trkpt>
      <trkpt lat="44.35686" lon="2.59732">
        <ele>534.59997558594</ele>
        <time>2011-12-27T10:15:10.000Z</time>
      </trkpt>
      <trkpt lat="44.35699" lon="2.59715">
        <ele>533.79998779297</ele>
        <time>2011-12-27T10:15:16.000Z</time>
      </trkpt>
      <trkpt lat="44.35709" lon="2.59701">
        <ele>533.20001220703</ele>
        <time>2011-12-27T10:15:21.000Z</time>
      </trkpt>
      <trkpt lat="44.35718" lon="2.59688">
        <ele>532.59997558594</ele>
        <time>2011-12-27T10:15:26.000Z</time>
      </trkpt>
      <trkpt lat="44.35727" lon="2.59677">
        <ele>532.20001220703</ele>
        <time>2011-12-27T10:15:30.000Z</time>
      </trkpt>
      <trkpt lat="44.3573" lon="2.59674">
        <ele>532</ele>
        <time>2011-12-27T10:15:31.000Z</time>
      </trkpt>
      <trkpt lat="44.35737" lon="2.59663">
        <ele>531.59997558594</ele>
        <time>2011-12-27T10:15:35.000Z</time>
      </trkpt>
      <trkpt lat="44.35748" lon="2.59646">
        <ele>531</ele>
        <time>2011-12-27T10:15:41.000Z</time>
      </trkpt>
      <trkpt lat="44.35757" lon="2.59632">
        <ele>531.20001220703</ele>
        <time>2011-12-27T10:15:46.000Z</time>
      </trkpt>
      <trkpt lat="44.35768" lon="2.59617">
        <ele>531.79998779297</ele>
        <time>2011-12-27T10:15:52.000Z</time>
      </trkpt>
      <trkpt lat="44.35775" lon="2.59603">
        <ele>532.20001220703</ele>
        <time>2011-12-27T10:15:57.000Z</time>
      </trkpt>
      <trkpt lat="44.35777" lon="2.59596">
        <ele>532.20001220703</ele>
        <time>2011-12-27T10:16:01.000Z</time>
      </trkpt>
      <trkpt lat="44.35778" lon="2.59594">
        <ele>532.20001220703</ele>
        <time>2011-12-27T10:16:02.000Z</time>
      </trkpt>
      <trkpt lat="44.35782" lon="2.59578">
        <ele>532.40002441406</ele>
        <time>2011-12-27T10:16:07.000Z</time>
      </trkpt>
      <trkpt lat="44.35783" lon="2.59558">
        <ele>532.40002441406</ele>
        <time>2011-12-27T10:16:12.000Z</time>
      </trkpt>
      <trkpt lat="44.35782" lon="2.59539">
        <ele>532.20001220703</ele>
        <time>2011-12-27T10:16:17.000Z</time>
      </trkpt>
      <trkpt lat="44.35777" lon="2.59517">
        <ele>531.79998779297</ele>
        <time>2011-12-27T10:16:23.000Z</time>
      </trkpt>
      <trkpt lat="44.35775" lon="2.59497">
        <ele>531.59997558594</ele>
        <time>2011-12-27T10:16:28.000Z</time>
      </trkpt>
      <trkpt lat="44.35777" lon="2.59469">
        <ele>531.79998779297</ele>
        <time>2011-12-27T10:16:35.000Z</time>
      </trkpt>
      <trkpt lat="44.3578" lon="2.59446">
        <ele>532</ele>
        <time>2011-12-27T10:16:41.000Z</time>
      </trkpt>
      <trkpt lat="44.35775" lon="2.59424">
        <ele>531.79998779297</ele>
        <time>2011-12-27T10:16:47.000Z</time>
      </trkpt>
      <trkpt lat="44.35764" lon="2.59409">
        <ele>531.59997558594</ele>
        <time>2011-12-27T10:16:52.000Z</time>
      </trkpt>
      <trkpt lat="44.35752" lon="2.59397">
        <ele>531</ele>
        <time>2011-12-27T10:16:57.000Z</time>
      </trkpt>
      <trkpt lat="44.35745" lon="2.59387">
        <ele>531</ele>
        <time>2011-12-27T10:17:02.000Z</time>
      </trkpt>
      <trkpt lat="44.35742" lon="2.5938">
        <ele>531</ele>
        <time>2011-12-27T10:17:07.000Z</time>
      </trkpt>
      <trkpt lat="44.35737" lon="2.59369">
        <ele>531</ele>
        <time>2011-12-27T10:17:11.000Z</time>
      </trkpt>
      <trkpt lat="44.35725" lon="2.5935">
        <ele>530.79998779297</ele>
        <time>2011-12-27T10:17:17.000Z</time>
      </trkpt>
      <trkpt lat="44.35718" lon="2.59335">
        <ele>530.59997558594</ele>
        <time>2011-12-27T10:17:22.000Z</time>
      </trkpt>
      <trkpt lat="44.3571" lon="2.59318">
        <ele>531</ele>
        <time>2011-12-27T10:17:27.000Z</time>
      </trkpt>
      <trkpt lat="44.35706" lon="2.59297">
        <ele>531.79998779297</ele>
        <time>2011-12-27T10:17:33.000Z</time>
      </trkpt>
      <trkpt lat="44.35702" lon="2.59285">
        <ele>532</ele>
        <time>2011-12-27T10:17:37.000Z</time>
      </trkpt>
      <trkpt lat="44.35696" lon="2.59268">
        <ele>532.40002441406</ele>
        <time>2011-12-27T10:17:42.000Z</time>
      </trkpt>
      <trkpt lat="44.35687" lon="2.59247">
        <ele>532.79998779297</ele>
        <time>2011-12-27T10:17:48.000Z</time>
      </trkpt>
      <trkpt lat="44.35677" lon="2.59234">
        <ele>532.59997558594</ele>
        <time>2011-12-27T10:17:53.000Z</time>
      </trkpt>
      <trkpt lat="44.35668" lon="2.5922">
        <ele>532.40002441406</ele>
        <time>2011-12-27T10:17:58.000Z</time>
      </trkpt>
      <trkpt lat="44.35659" lon="2.59204">
        <ele>532.59997558594</ele>
        <time>2011-12-27T10:18:03.000Z</time>
      </trkpt>
      <trkpt lat="44.3565" lon="2.59188">
        <ele>532.79998779297</ele>
        <time>2011-12-27T10:18:08.000Z</time>
      </trkpt>
      <trkpt lat="44.35638" lon="2.59167">
        <ele>533</ele>
        <time>2011-12-27T10:18:15.000Z</time>
      </trkpt>
      <trkpt lat="44.3563" lon="2.5915">
        <ele>534</ele>
        <time>2011-12-27T10:18:20.000Z</time>
      </trkpt>
      <trkpt lat="44.35622" lon="2.59136">
        <ele>534.79998779297</ele>
        <time>2011-12-27T10:18:25.000Z</time>
      </trkpt>
      <trkpt lat="44.35609" lon="2.59117">
        <ele>535.59997558594</ele>
        <time>2011-12-27T10:18:31.000Z</time>
      </trkpt>
      <trkpt lat="44.35598" lon="2.59104">
        <ele>535.79998779297</ele>
        <time>2011-12-27T10:18:37.000Z</time>
      </trkpt>
      <trkpt lat="44.35586" lon="2.59091">
        <ele>535.79998779297</ele>
        <time>2011-12-27T10:18:43.000Z</time>
      </trkpt>
      <trkpt lat="44.35574" lon="2.5908">
        <ele>537.40002441406</ele>
        <time>2011-12-27T10:18:49.000Z</time>
      </trkpt>
      <trkpt lat="44.35562" lon="2.59077">
        <ele>539.20001220703</ele>
        <time>2011-12-27T10:18:54.000Z</time>
      </trkpt>
      <trkpt lat="44.35551" lon="2.59079">
        <ele>540</ele>
        <time>2011-12-27T10:18:58.000Z</time>
      </trkpt>
      <trkpt lat="44.35539" lon="2.59082">
        <ele>541</ele>
        <time>2011-12-27T10:19:04.000Z</time>
      </trkpt>
      <trkpt lat="44.35526" lon="2.59089">
        <ele>541.59997558594</ele>
        <time>2011-12-27T10:19:09.000Z</time>
      </trkpt>
      <trkpt lat="44.35508" lon="2.59098">
        <ele>542</ele>
        <time>2011-12-27T10:19:15.000Z</time>
      </trkpt>
      <trkpt lat="44.35501" lon="2.59102">
        <ele>542</ele>
        <time>2011-12-27T10:19:18.000Z</time>
      </trkpt>
      <trkpt lat="44.35497" lon="2.59107">
        <ele>542.40002441406</ele>
        <time>2011-12-27T10:19:20.000Z</time>
      </trkpt>
      <trkpt lat="44.3549" lon="2.59117">
        <ele>543</ele>
        <time>2011-12-27T10:19:24.000Z</time>
      </trkpt>
      <trkpt lat="44.35484" lon="2.59127">
        <ele>543.40002441406</ele>
        <time>2011-12-27T10:19:27.000Z</time>
      </trkpt>
      <trkpt lat="44.3548" lon="2.59135">
        <ele>543.40002441406</ele>
        <time>2011-12-27T10:19:29.000Z</time>
      </trkpt>
      <trkpt lat="44.35474" lon="2.59149">
        <ele>543.20001220703</ele>
        <time>2011-12-27T10:19:34.000Z</time>
      </trkpt>
      <trkpt lat="44.35462" lon="2.59163">
        <ele>544.40002441406</ele>
        <time>2011-12-27T10:19:39.000Z</time>
      </trkpt>
      <trkpt lat="44.3545" lon="2.59181">
        <ele>545</ele>
        <time>2011-12-27T10:19:45.000Z</time>
      </trkpt>
      <trkpt lat="44.35441" lon="2.59192">
        <ele>545.40002441406</ele>
        <time>2011-12-27T10:19:50.000Z</time>
      </trkpt>
      <trkpt lat="44.35429" lon="2.59206">
        <ele>544.59997558594</ele>
        <time>2011-12-27T10:19:55.000Z</time>
      </trkpt>
      <trkpt lat="44.35418" lon="2.59218">
        <ele>543.40002441406</ele>
        <time>2011-12-27T10:20:00.000Z</time>
      </trkpt>
      <trkpt lat="44.35409" lon="2.59231">
        <ele>543</ele>
        <time>2011-12-27T10:20:05.000Z</time>
      </trkpt>
      <trkpt lat="44.35396" lon="2.59243">
        <ele>543.79998779297</ele>
        <time>2011-12-27T10:20:11.000Z</time>
      </trkpt>
      <trkpt lat="44.35384" lon="2.59251">
        <ele>545.79998779297</ele>
        <time>2011-12-27T10:20:16.000Z</time>
      </trkpt>
      <trkpt lat="44.35369" lon="2.59265">
        <ele>549</ele>
        <time>2011-12-27T10:20:23.000Z</time>
      </trkpt>
      <trkpt lat="44.35358" lon="2.59282">
        <ele>549.40002441406</ele>
        <time>2011-12-27T10:20:28.000Z</time>
      </trkpt>
      <trkpt lat="44.35348" lon="2.59297">
        <ele>548.79998779297</ele>
        <time>2011-12-27T10:20:33.000Z</time>
      </trkpt>
      <trkpt lat="44.35339" lon="2.59313">
        <ele>547</ele>
        <time>2011-12-27T10:20:38.000Z</time>
      </trkpt>
      <trkpt lat="44.35329" lon="2.59327">
        <ele>545.59997558594</ele>
        <time>2011-12-27T10:20:43.000Z</time>
      </trkpt>
      <trkpt lat="44.35318" lon="2.59348">
        <ele>545.79998779297</ele>
        <time>2011-12-27T10:20:49.000Z</time>
      </trkpt>
      <trkpt lat="44.35307" lon="2.59367">
        <ele>546.20001220703</ele>
        <time>2011-12-27T10:20:56.000Z</time>
      </trkpt>
      <trkpt lat="44.35296" lon="2.59387">
        <ele>545.59997558594</ele>
        <time>2011-12-27T10:21:02.000Z</time>
      </trkpt>
      <trkpt lat="44.35291" lon="2.59396">
        <ele>545.20001220703</ele>
        <time>2011-12-27T10:21:04.000Z</time>
      </trkpt>
      <trkpt lat="44.35288" lon="2.59402">
        <ele>544.59997558594</ele>
        <time>2011-12-27T10:21:06.000Z</time>
      </trkpt>
      <trkpt lat="44.35278" lon="2.59418">
        <ele>543.20001220703</ele>
        <time>2011-12-27T10:21:11.000Z</time>
      </trkpt>
      <trkpt lat="44.35268" lon="2.5943">
        <ele>543.40002441406</ele>
        <time>2011-12-27T10:21:17.000Z</time>
      </trkpt>
      <trkpt lat="44.35256" lon="2.59442">
        <ele>542.79998779297</ele>
        <time>2011-12-27T10:21:23.000Z</time>
      </trkpt>
      <trkpt lat="44.35243" lon="2.59464">
        <ele>540.79998779297</ele>
        <time>2011-12-27T10:21:29.000Z</time>
      </trkpt>
      <trkpt lat="44.35234" lon="2.59479">
        <ele>539.40002441406</ele>
        <time>2011-12-27T10:21:35.000Z</time>
      </trkpt>
      <trkpt lat="44.35228" lon="2.59491">
        <ele>538.20001220703</ele>
        <time>2011-12-27T10:21:39.000Z</time>
      </trkpt>
      <trkpt lat="44.35218" lon="2.59502">
        <ele>537.20001220703</ele>
        <time>2011-12-27T10:21:44.000Z</time>
      </trkpt>
      <trkpt lat="44.35207" lon="2.59518">
        <ele>538</ele>
        <time>2011-12-27T10:21:50.000Z</time>
      </trkpt>
      <trkpt lat="44.35195" lon="2.59534">
        <ele>537.79998779297</ele>
        <time>2011-12-27T10:21:56.000Z</time>
      </trkpt>
      <trkpt lat="44.35185" lon="2.5955">
        <ele>537.20001220703</ele>
        <time>2011-12-27T10:22:02.000Z</time>
      </trkpt>
      <trkpt lat="44.35175" lon="2.59568">
        <ele>535.79998779297</ele>
        <time>2011-12-27T10:22:08.000Z</time>
      </trkpt>
      <trkpt lat="44.35165" lon="2.59584">
        <ele>534</ele>
        <time>2011-12-27T10:22:13.000Z</time>
      </trkpt>
      <trkpt lat="44.35154" lon="2.59602">
        <ele>534.59997558594</ele>
        <time>2011-12-27T10:22:19.000Z</time>
      </trkpt>
      <trkpt lat="44.35143" lon="2.59619">
        <ele>534.59997558594</ele>
        <time>2011-12-27T10:22:24.000Z</time>
      </trkpt>
      <trkpt lat="44.35132" lon="2.59635">
        <ele>534.59997558594</ele>
        <time>2011-12-27T10:22:30.000Z</time>
      </trkpt>
      <trkpt lat="44.35123" lon="2.59649">
        <ele>534.20001220703</ele>
        <time>2011-12-27T10:22:35.000Z</time>
      </trkpt>
      <trkpt lat="44.35112" lon="2.59663">
        <ele>533.40002441406</ele>
        <time>2011-12-27T10:22:40.000Z</time>
      </trkpt>
      <trkpt lat="44.35094" lon="2.59675">
        <ele>532.40002441406</ele>
        <time>2011-12-27T10:22:47.000Z</time>
      </trkpt>
      <trkpt lat="44.35081" lon="2.59682">
        <ele>531.79998779297</ele>
        <time>2011-12-27T10:22:52.000Z</time>
      </trkpt>
      <trkpt lat="44.35067" lon="2.59689">
        <ele>532.59997558594</ele>
        <time>2011-12-27T10:22:57.000Z</time>
      </trkpt>
      <trkpt lat="44.35052" lon="2.59689">
        <ele>533.20001220703</ele>
        <time>2011-12-27T10:23:02.000Z</time>
      </trkpt>
      <trkpt lat="44.35037" lon="2.59685">
        <ele>533.20001220703</ele>
        <time>2011-12-27T10:23:07.000Z</time>
      </trkpt>
      <trkpt lat="44.35027" lon="2.59677">
        <ele>532.79998779297</ele>
        <time>2011-12-27T10:23:11.000Z</time>
      </trkpt>
      <trkpt lat="44.35015" lon="2.59664">
        <ele>531.79998779297</ele>
        <time>2011-12-27T10:23:16.000Z</time>
      </trkpt>
      <trkpt lat="44.35009" lon="2.59646">
        <ele>531.79998779297</ele>
        <time>2011-12-27T10:23:21.000Z</time>
      </trkpt>
      <trkpt lat="44.35007" lon="2.5963">
        <ele>531.59997558594</ele>
        <time>2011-12-27T10:23:25.000Z</time>
      </trkpt>
      <trkpt lat="44.35009" lon="2.59618">
        <ele>531.40002441406</ele>
        <time>2011-12-27T10:23:28.000Z</time>
      </trkpt>
      <trkpt lat="44.35009" lon="2.59614">
        <ele>531.40002441406</ele>
        <time>2011-12-27T10:23:29.000Z</time>
      </trkpt>
      <trkpt lat="44.35009" lon="2.59591">
        <ele>531.20001220703</ele>
        <time>2011-12-27T10:23:35.000Z</time>
      </trkpt>
      <trkpt lat="44.35008" lon="2.59576">
        <ele>531.59997558594</ele>
        <time>2011-12-27T10:23:39.000Z</time>
      </trkpt>
      <trkpt lat="44.35005" lon="2.5956">
        <ele>532</ele>
        <time>2011-12-27T10:23:43.000Z</time>
      </trkpt>
      <trkpt lat="44.34998" lon="2.59532">
        <ele>533.20001220703</ele>
        <time>2011-12-27T10:23:50.000Z</time>
      </trkpt>
      <trkpt lat="44.34994" lon="2.59514">
        <ele>534.20001220703</ele>
        <time>2011-12-27T10:23:55.000Z</time>
      </trkpt>
      <trkpt lat="44.34991" lon="2.59495">
        <ele>535.20001220703</ele>
        <time>2011-12-27T10:24:00.000Z</time>
      </trkpt>
      <trkpt lat="44.34989" lon="2.59474">
        <ele>536.59997558594</ele>
        <time>2011-12-27T10:24:06.000Z</time>
      </trkpt>
      <trkpt lat="44.34985" lon="2.59452">
        <ele>537.79998779297</ele>
        <time>2011-12-27T10:24:12.000Z</time>
      </trkpt>
      <trkpt lat="44.3498" lon="2.59431">
        <ele>539</ele>
        <time>2011-12-27T10:24:18.000Z</time>
      </trkpt>
      <trkpt lat="44.34976" lon="2.59406">
        <ele>539.40002441406</ele>
        <time>2011-12-27T10:24:25.000Z</time>
      </trkpt>
      <trkpt lat="44.34973" lon="2.59388">
        <ele>539.59997558594</ele>
        <time>2011-12-27T10:24:30.000Z</time>
      </trkpt>
      <trkpt lat="44.3497" lon="2.59362">
        <ele>539.79998779297</ele>
        <time>2011-12-27T10:24:37.000Z</time>
      </trkpt>
      <trkpt lat="44.34969" lon="2.59343">
        <ele>540</ele>
        <time>2011-12-27T10:24:42.000Z</time>
      </trkpt>
      <trkpt lat="44.3497" lon="2.59329">
        <ele>540.20001220703</ele>
        <time>2011-12-27T10:24:46.000Z</time>
      </trkpt>
      <trkpt lat="44.34972" lon="2.59311">
        <ele>540.20001220703</ele>
        <time>2011-12-27T10:24:51.000Z</time>
      </trkpt>
      <trkpt lat="44.34981" lon="2.59293">
        <ele>539.40002441406</ele>
        <time>2011-12-27T10:24:57.000Z</time>
      </trkpt>
      <trkpt lat="44.34985" lon="2.59272">
        <ele>538.59997558594</ele>
        <time>2011-12-27T10:25:03.000Z</time>
      </trkpt>
      <trkpt lat="44.34989" lon="2.59255">
        <ele>537.40002441406</ele>
        <time>2011-12-27T10:25:08.000Z</time>
      </trkpt>
      <trkpt lat="44.34994" lon="2.59233">
        <ele>536.59997558594</ele>
        <time>2011-12-27T10:25:14.000Z</time>
      </trkpt>
      <trkpt lat="44.35002" lon="2.59216">
        <ele>535.20001220703</ele>
        <time>2011-12-27T10:25:19.000Z</time>
      </trkpt>
      <trkpt lat="44.35011" lon="2.59197">
        <ele>535.59997558594</ele>
        <time>2011-12-27T10:25:25.000Z</time>
      </trkpt>
      <trkpt lat="44.3502" lon="2.59181">
        <ele>535.79998779297</ele>
        <time>2011-12-27T10:25:30.000Z</time>
      </trkpt>
      <trkpt lat="44.35029" lon="2.59166">
        <ele>535.59997558594</ele>
        <time>2011-12-27T10:25:35.000Z</time>
      </trkpt>
      <trkpt lat="44.35041" lon="2.59144">
        <ele>535.79998779297</ele>
        <time>2011-12-27T10:25:42.000Z</time>
      </trkpt>
      <trkpt lat="44.35051" lon="2.5913">
        <ele>535.20001220703</ele>
        <time>2011-12-27T10:25:47.000Z</time>
      </trkpt>
      <trkpt lat="44.35062" lon="2.59113">
        <ele>534</ele>
        <time>2011-12-27T10:25:53.000Z</time>
      </trkpt>
      <trkpt lat="44.35075" lon="2.59095">
        <ele>531.79998779297</ele>
        <time>2011-12-27T10:25:59.000Z</time>
      </trkpt>
      <trkpt lat="44.35083" lon="2.59082">
        <ele>530</ele>
        <time>2011-12-27T10:26:04.000Z</time>
      </trkpt>
      <trkpt lat="44.35092" lon="2.5907">
        <ele>531.20001220703</ele>
        <time>2011-12-27T10:26:08.000Z</time>
      </trkpt>
      <trkpt lat="44.35101" lon="2.59056">
        <ele>532.20001220703</ele>
        <time>2011-12-27T10:26:13.000Z</time>
      </trkpt>
      <trkpt lat="44.35111" lon="2.59044">
        <ele>533.20001220703</ele>
        <time>2011-12-27T10:26:18.000Z</time>
      </trkpt>
      <trkpt lat="44.35119" lon="2.59027">
        <ele>533.79998779297</ele>
        <time>2011-12-27T10:26:24.000Z</time>
      </trkpt>
      <trkpt lat="44.35128" lon="2.59016">
        <ele>534</ele>
        <time>2011-12-27T10:26:28.000Z</time>
      </trkpt>
      <trkpt lat="44.35133" lon="2.5901">
        <ele>534.20001220703</ele>
        <time>2011-12-27T10:26:30.000Z</time>
      </trkpt>
      <trkpt lat="44.35141" lon="2.58995">
        <ele>534.40002441406</ele>
        <time>2011-12-27T10:26:35.000Z</time>
      </trkpt>
      <trkpt lat="44.35151" lon="2.58975">
        <ele>534.59997558594</ele>
        <time>2011-12-27T10:26:41.000Z</time>
      </trkpt>
      <trkpt lat="44.35159" lon="2.58957">
        <ele>534.20001220703</ele>
        <time>2011-12-27T10:26:46.000Z</time>
      </trkpt>
      <trkpt lat="44.35167" lon="2.58936">
        <ele>533.40002441406</ele>
        <time>2011-12-27T10:26:52.000Z</time>
      </trkpt>
      <trkpt lat="44.35173" lon="2.58913">
        <ele>533.40002441406</ele>
        <time>2011-12-27T10:26:58.000Z</time>
      </trkpt>
      <trkpt lat="44.35173" lon="2.5891">
        <ele>533.40002441406</ele>
        <time>2011-12-27T10:26:59.000Z</time>
      </trkpt>
      <trkpt lat="44.35176" lon="2.58899">
        <ele>533.40002441406</ele>
        <time>2011-12-27T10:27:02.000Z</time>
      </trkpt>
      <trkpt lat="44.35185" lon="2.58882">
        <ele>533.40002441406</ele>
        <time>2011-12-27T10:27:07.000Z</time>
      </trkpt>
      <trkpt lat="44.35198" lon="2.58863">
        <ele>533.40002441406</ele>
        <time>2011-12-27T10:27:13.000Z</time>
      </trkpt>
      <trkpt lat="44.35207" lon="2.58848">
        <ele>533</ele>
        <time>2011-12-27T10:27:18.000Z</time>
      </trkpt>
      <trkpt lat="44.35219" lon="2.58826">
        <ele>532.40002441406</ele>
        <time>2011-12-27T10:27:25.000Z</time>
      </trkpt>
      <trkpt lat="44.3523" lon="2.58807">
        <ele>531.40002441406</ele>
        <time>2011-12-27T10:27:31.000Z</time>
      </trkpt>
      <trkpt lat="44.35239" lon="2.58787">
        <ele>530</ele>
        <time>2011-12-27T10:27:37.000Z</time>
      </trkpt>
      <trkpt lat="44.35247" lon="2.58769">
        <ele>528.59997558594</ele>
        <time>2011-12-27T10:27:42.000Z</time>
      </trkpt>
      <trkpt lat="44.35254" lon="2.58751">
        <ele>528</ele>
        <time>2011-12-27T10:27:47.000Z</time>
      </trkpt>
      <trkpt lat="44.35261" lon="2.58735">
        <ele>529.59997558594</ele>
        <time>2011-12-27T10:27:52.000Z</time>
      </trkpt>
      <trkpt lat="44.35272" lon="2.58713">
        <ele>531.40002441406</ele>
        <time>2011-12-27T10:27:59.000Z</time>
      </trkpt>
      <trkpt lat="44.35278" lon="2.587">
        <ele>532.20001220703</ele>
        <time>2011-12-27T10:28:03.000Z</time>
      </trkpt>
      <trkpt lat="44.35284" lon="2.58681">
        <ele>532.79998779297</ele>
        <time>2011-12-27T10:28:08.000Z</time>
      </trkpt>
      <trkpt lat="44.35296" lon="2.58663">
        <ele>533.20001220703</ele>
        <time>2011-12-27T10:28:14.000Z</time>
      </trkpt>
      <trkpt lat="44.35302" lon="2.58643">
        <ele>533.20001220703</ele>
        <time>2011-12-27T10:28:20.000Z</time>
      </trkpt>
      <trkpt lat="44.35311" lon="2.58627">
        <ele>533.20001220703</ele>
        <time>2011-12-27T10:28:26.000Z</time>
      </trkpt>
      <trkpt lat="44.35312" lon="2.58623">
        <ele>533.20001220703</ele>
        <time>2011-12-27T10:28:29.000Z</time>
      </trkpt>
      <trkpt lat="44.35317" lon="2.58612">
        <ele>533</ele>
        <time>2011-12-27T10:28:34.000Z</time>
      </trkpt>
      <trkpt lat="44.35325" lon="2.58599">
        <ele>532.59997558594</ele>
        <time>2011-12-27T10:28:39.000Z</time>
      </trkpt>
      <trkpt lat="44.35335" lon="2.58587">
        <ele>532.40002441406</ele>
        <time>2011-12-27T10:28:44.000Z</time>
      </trkpt>
      <trkpt lat="44.35348" lon="2.58573">
        <ele>533.59997558594</ele>
        <time>2011-12-27T10:28:50.000Z</time>
      </trkpt>
      <trkpt lat="44.35359" lon="2.5856">
        <ele>534.59997558594</ele>
        <time>2011-12-27T10:28:55.000Z</time>
      </trkpt>
      <trkpt lat="44.35365" lon="2.58545">
        <ele>534.59997558594</ele>
        <time>2011-12-27T10:29:00.000Z</time>
      </trkpt>
      <trkpt lat="44.35374" lon="2.58533">
        <ele>535.20001220703</ele>
        <time>2011-12-27T10:29:05.000Z</time>
      </trkpt>
      <trkpt lat="44.35377" lon="2.5852">
        <ele>534.79998779297</ele>
        <time>2011-12-27T10:29:10.000Z</time>
      </trkpt>
      <trkpt lat="44.35377" lon="2.58503">
        <ele>533.79998779297</ele>
        <time>2011-12-27T10:29:15.000Z</time>
      </trkpt>
      <trkpt lat="44.35372" lon="2.58475">
        <ele>532.40002441406</ele>
        <time>2011-12-27T10:29:21.000Z</time>
      </trkpt>
      <trkpt lat="44.35371" lon="2.58449">
        <ele>531.59997558594</ele>
        <time>2011-12-27T10:29:27.000Z</time>
      </trkpt>
      <trkpt lat="44.35368" lon="2.58428">
        <ele>530.79998779297</ele>
        <time>2011-12-27T10:29:32.000Z</time>
      </trkpt>
      <trkpt lat="44.35364" lon="2.58407">
        <ele>530.20001220703</ele>
        <time>2011-12-27T10:29:37.000Z</time>
      </trkpt>
      <trkpt lat="44.3536" lon="2.58383">
        <ele>529.40002441406</ele>
        <time>2011-12-27T10:29:43.000Z</time>
      </trkpt>
      <trkpt lat="44.35354" lon="2.58361">
        <ele>528.40002441406</ele>
        <time>2011-12-27T10:29:48.000Z</time>
      </trkpt>
      <trkpt lat="44.35352" lon="2.58342">
        <ele>527.59997558594</ele>
        <time>2011-12-27T10:29:53.000Z</time>
      </trkpt>
      <trkpt lat="44.35349" lon="2.5832">
        <ele>527.20001220703</ele>
        <time>2011-12-27T10:29:58.000Z</time>
      </trkpt>
      <trkpt lat="44.35345" lon="2.58293">
        <ele>527.40002441406</ele>
        <time>2011-12-27T10:30:04.000Z</time>
      </trkpt>
      <trkpt lat="44.35344" lon="2.58269">
        <ele>527.59997558594</ele>
        <time>2011-12-27T10:30:10.000Z</time>
      </trkpt>
      <trkpt lat="44.35348" lon="2.58241">
        <ele>528.40002441406</ele>
        <time>2011-12-27T10:30:17.000Z</time>
      </trkpt>
      <trkpt lat="44.3535" lon="2.58225">
        <ele>528.79998779297</ele>
        <time>2011-12-27T10:30:21.000Z</time>
      </trkpt>
      <trkpt lat="44.35354" lon="2.58203">
        <ele>529.20001220703</ele>
        <time>2011-12-27T10:30:27.000Z</time>
      </trkpt>
      <trkpt lat="44.35356" lon="2.58182">
        <ele>529.59997558594</ele>
        <time>2011-12-27T10:30:32.000Z</time>
      </trkpt>
      <trkpt lat="44.35362" lon="2.5816">
        <ele>530.20001220703</ele>
        <time>2011-12-27T10:30:38.000Z</time>
      </trkpt>
      <trkpt lat="44.35366" lon="2.5814">
        <ele>531.40002441406</ele>
        <time>2011-12-27T10:30:43.000Z</time>
      </trkpt>
      <trkpt lat="44.35372" lon="2.58126">
        <ele>532.20001220703</ele>
        <time>2011-12-27T10:30:49.000Z</time>
      </trkpt>
      <trkpt lat="44.35379" lon="2.58101">
        <ele>533.59997558594</ele>
        <time>2011-12-27T10:30:57.000Z</time>
      </trkpt>
      <trkpt lat="44.35381" lon="2.58093">
        <ele>534</ele>
        <time>2011-12-27T10:31:00.000Z</time>
      </trkpt>
      <trkpt lat="44.35382" lon="2.58089">
        <ele>534.20001220703</ele>
        <time>2011-12-27T10:31:02.000Z</time>
      </trkpt>
      <trkpt lat="44.35381" lon="2.58079">
        <ele>535.20001220703</ele>
        <time>2011-12-27T10:31:07.000Z</time>
      </trkpt>
      <trkpt lat="44.35381" lon="2.58078">
        <ele>535.59997558594</ele>
        <time>2011-12-27T10:31:08.000Z</time>
      </trkpt>
      <trkpt lat="44.35382" lon="2.5807">
        <ele>537</ele>
        <time>2011-12-27T10:31:12.000Z</time>
      </trkpt>
      <trkpt lat="44.35383" lon="2.58066">
        <ele>537.79998779297</ele>
        <time>2011-12-27T10:31:14.000Z</time>
      </trkpt>
      <trkpt lat="44.35381" lon="2.58059">
        <ele>539.20001220703</ele>
        <time>2011-12-27T10:31:18.000Z</time>
      </trkpt>
      <trkpt lat="44.3538" lon="2.58056">
        <ele>539.59997558594</ele>
        <time>2011-12-27T10:31:19.000Z</time>
      </trkpt>
      <trkpt lat="44.35379" lon="2.58045">
        <ele>541.59997558594</ele>
        <time>2011-12-27T10:31:26.000Z</time>
      </trkpt>
      <trkpt lat="44.35379" lon="2.58038">
        <ele>543</ele>
        <time>2011-12-27T10:31:31.000Z</time>
      </trkpt>
      <trkpt lat="44.35377" lon="2.58033">
        <ele>544</ele>
        <time>2011-12-27T10:31:33.000Z</time>
      </trkpt>
      <trkpt lat="44.35377" lon="2.58024">
        <ele>545.79998779297</ele>
        <time>2011-12-27T10:31:38.000Z</time>
      </trkpt>
      <trkpt lat="44.35376" lon="2.58023">
        <ele>546</ele>
        <time>2011-12-27T10:31:39.000Z</time>
      </trkpt>
      <trkpt lat="44.35376" lon="2.58019">
        <ele>546.59997558594</ele>
        <time>2011-12-27T10:31:41.000Z</time>
      </trkpt>
      <trkpt lat="44.35376" lon="2.58012">
        <ele>548.20001220703</ele>
        <time>2011-12-27T10:31:45.000Z</time>
      </trkpt>
      <trkpt lat="44.35375" lon="2.58009">
        <ele>548.59997558594</ele>
        <time>2011-12-27T10:31:46.000Z</time>
      </trkpt>
      <trkpt lat="44.35376" lon="2.58003">
        <ele>549.79998779297</ele>
        <time>2011-12-27T10:31:50.000Z</time>
      </trkpt>
      <trkpt lat="44.35376" lon="2.58002">
        <ele>550</ele>
        <time>2011-12-27T10:31:51.000Z</time>
      </trkpt>
      <trkpt lat="44.35375" lon="2.57994">
        <ele>552</ele>
        <time>2011-12-27T10:31:58.000Z</time>
      </trkpt>
      <trkpt lat="44.35375" lon="2.5799">
        <ele>553</ele>
        <time>2011-12-27T10:32:00.000Z</time>
      </trkpt>
      <trkpt lat="44.35374" lon="2.57989">
        <ele>553.40002441406</ele>
        <time>2011-12-27T10:32:02.000Z</time>
      </trkpt>
      <trkpt lat="44.35373" lon="2.57987">
        <ele>553.79998779297</ele>
        <time>2011-12-27T10:32:04.000Z</time>
      </trkpt>
      <trkpt lat="44.35372" lon="2.57986">
        <ele>554.20001220703</ele>
        <time>2011-12-27T10:32:05.000Z</time>
      </trkpt>
      <trkpt lat="44.35368" lon="2.57985">
        <ele>554.59997558594</ele>
        <time>2011-12-27T10:32:10.000Z</time>
      </trkpt>
      <trkpt lat="44.35367" lon="2.57984">
        <ele>554.59997558594</ele>
        <time>2011-12-27T10:32:11.000Z</time>
      </trkpt>
      <trkpt lat="44.35367" lon="2.57983">
        <ele>555</ele>
        <time>2011-12-27T10:32:12.000Z</time>
      </trkpt>
      <trkpt lat="44.35365" lon="2.57983">
        <ele>555.20001220703</ele>
        <time>2011-12-27T10:32:15.000Z</time>
      </trkpt>
      <trkpt lat="44.3536" lon="2.57978">
        <ele>556.59997558594</ele>
        <time>2011-12-27T10:32:19.000Z</time>
      </trkpt>
      <trkpt lat="44.35354" lon="2.57972">
        <ele>558.40002441406</ele>
        <time>2011-12-27T10:32:26.000Z</time>
      </trkpt>
      <trkpt lat="44.35352" lon="2.57971">
        <ele>558.79998779297</ele>
        <time>2011-12-27T10:32:28.000Z</time>
      </trkpt>
      <trkpt lat="44.35349" lon="2.57968">
        <ele>559.79998779297</ele>
        <time>2011-12-27T10:32:33.000Z</time>
      </trkpt>
      <trkpt lat="44.35345" lon="2.57965">
        <ele>560.79998779297</ele>
        <time>2011-12-27T10:32:39.000Z</time>
      </trkpt>
      <trkpt lat="44.35343" lon="2.57965">
        <ele>561.20001220703</ele>
        <time>2011-12-27T10:32:41.000Z</time>
      </trkpt>
      <trkpt lat="44.35343" lon="2.57963">
        <ele>561.59997558594</ele>
        <time>2011-12-27T10:32:45.000Z</time>
      </trkpt>
      <trkpt lat="44.3534" lon="2.57959">
        <ele>562.79998779297</ele>
        <time>2011-12-27T10:32:50.000Z</time>
      </trkpt>
      <trkpt lat="44.35339" lon="2.57961">
        <ele>562.40002441406</ele>
        <time>2011-12-27T10:32:51.000Z</time>
      </trkpt>
      <trkpt lat="44.35336" lon="2.57959">
        <ele>563.20001220703</ele>
        <time>2011-12-27T10:32:55.000Z</time>
      </trkpt>
      <trkpt lat="44.35332" lon="2.57958">
        <ele>563.79998779297</ele>
        <time>2011-12-27T10:33:00.000Z</time>
      </trkpt>
      <trkpt lat="44.35332" lon="2.57956">
        <ele>564.40002441406</ele>
        <time>2011-12-27T10:33:01.000Z</time>
      </trkpt>
      <trkpt lat="44.35332" lon="2.57953">
        <ele>565.40002441406</ele>
        <time>2011-12-27T10:33:03.000Z</time>
      </trkpt>
      <trkpt lat="44.35328" lon="2.57955">
        <ele>565.59997558594</ele>
        <time>2011-12-27T10:33:06.000Z</time>
      </trkpt>
      <trkpt lat="44.35326" lon="2.57948">
        <ele>567.79998779297</ele>
        <time>2011-12-27T10:33:12.000Z</time>
      </trkpt>
      <trkpt lat="44.35325" lon="2.57948">
        <ele>568.40002441406</ele>
        <time>2011-12-27T10:33:14.000Z</time>
      </trkpt>
      <trkpt lat="44.35323" lon="2.57949">
        <ele>568.40002441406</ele>
        <time>2011-12-27T10:33:16.000Z</time>
      </trkpt>
      <trkpt lat="44.35321" lon="2.57948">
        <ele>568.79998779297</ele>
        <time>2011-12-27T10:33:19.000Z</time>
      </trkpt>
      <trkpt lat="44.3532" lon="2.57947">
        <ele>569.40002441406</ele>
        <time>2011-12-27T10:33:22.000Z</time>
      </trkpt>
      <trkpt lat="44.35319" lon="2.57946">
        <ele>569.79998779297</ele>
        <time>2011-12-27T10:33:23.000Z</time>
      </trkpt>
      <trkpt lat="44.35318" lon="2.57948">
        <ele>569.59997558594</ele>
        <time>2011-12-27T10:33:29.000Z</time>
      </trkpt>
      <trkpt lat="44.35318" lon="2.57949">
        <ele>569.40002441406</ele>
        <time>2011-12-27T10:33:30.000Z</time>
      </trkpt>
      <trkpt lat="44.35315" lon="2.57949">
        <ele>569.79998779297</ele>
        <time>2011-12-27T10:33:36.000Z</time>
      </trkpt>
      <trkpt lat="44.35309" lon="2.57949">
        <ele>570.79998779297</ele>
        <time>2011-12-27T10:33:43.000Z</time>
      </trkpt>
      <trkpt lat="44.35306" lon="2.57943">
        <ele>573.40002441406</ele>
        <time>2011-12-27T10:33:52.000Z</time>
      </trkpt>
      <trkpt lat="44.35308" lon="2.5794">
        <ele>573.79998779297</ele>
        <time>2011-12-27T10:33:55.000Z</time>
      </trkpt>
      <trkpt lat="44.35308" lon="2.57939">
        <ele>574.20001220703</ele>
        <time>2011-12-27T10:33:56.000Z</time>
      </trkpt>
      <trkpt lat="44.35311" lon="2.57934">
        <ele>574.79998779297</ele>
        <time>2011-12-27T10:34:02.000Z</time>
      </trkpt>
      <trkpt lat="44.35311" lon="2.57933">
        <ele>575.40002441406</ele>
        <time>2011-12-27T10:34:03.000Z</time>
      </trkpt>
      <trkpt lat="44.35311" lon="2.5793">
        <ele>576.40002441406</ele>
        <time>2011-12-27T10:34:06.000Z</time>
      </trkpt>
      <trkpt lat="44.35309" lon="2.57927">
        <ele>577.40002441406</ele>
        <time>2011-12-27T10:34:08.000Z</time>
      </trkpt>
      <trkpt lat="44.35309" lon="2.57924">
        <ele>578.59997558594</ele>
        <time>2011-12-27T10:34:14.000Z</time>
      </trkpt>
      <trkpt lat="44.3531" lon="2.57921">
        <ele>579.20001220703</ele>
        <time>2011-12-27T10:34:21.000Z</time>
      </trkpt>
      <trkpt lat="44.35311" lon="2.57915">
        <ele>581</ele>
        <time>2011-12-27T10:34:28.000Z</time>
      </trkpt>
      <trkpt lat="44.3531" lon="2.5791">
        <ele>582.79998779297</ele>
        <time>2011-12-27T10:34:34.000Z</time>
      </trkpt>
      <trkpt lat="44.35309" lon="2.57906">
        <ele>584.20001220703</ele>
        <time>2011-12-27T10:34:49.000Z</time>
      </trkpt>
      <trkpt lat="44.35309" lon="2.57904">
        <ele>584.79998779297</ele>
        <time>2011-12-27T10:34:53.000Z</time>
      </trkpt>
      <trkpt lat="44.35305" lon="2.57903">
        <ele>586.20001220703</ele>
        <time>2011-12-27T10:34:58.000Z</time>
      </trkpt>
      <trkpt lat="44.35304" lon="2.57903">
        <ele>586</ele>
        <time>2011-12-27T10:34:59.000Z</time>
      </trkpt>
      <trkpt lat="44.35302" lon="2.57903">
        <ele>586.40002441406</ele>
        <time>2011-12-27T10:35:02.000Z</time>
      </trkpt>
      <trkpt lat="44.35302" lon="2.57903">
        <ele>586.59997558594</ele>
        <time>2011-12-27T10:35:03.000Z</time>
      </trkpt>
      <trkpt lat="44.35301" lon="2.57902">
        <ele>587</ele>
        <time>2011-12-27T10:35:04.000Z</time>
      </trkpt>
      <trkpt lat="44.35298" lon="2.57902">
        <ele>587.79998779297</ele>
        <time>2011-12-27T10:35:08.000Z</time>
      </trkpt>
      <trkpt lat="44.35295" lon="2.57903">
        <ele>587.79998779297</ele>
        <time>2011-12-27T10:35:16.000Z</time>
      </trkpt>
      <trkpt lat="44.35295" lon="2.57905">
        <ele>587.40002441406</ele>
        <time>2011-12-27T10:35:17.000Z</time>
      </trkpt>
      <trkpt lat="44.35294" lon="2.5791">
        <ele>586</ele>
        <time>2011-12-27T10:35:21.000Z</time>
      </trkpt>
      <trkpt lat="44.35292" lon="2.57907">
        <ele>587.20001220703</ele>
        <time>2011-12-27T10:35:26.000Z</time>
      </trkpt>
      <trkpt lat="44.35287" lon="2.57908">
        <ele>587.79998779297</ele>
        <time>2011-12-27T10:35:32.000Z</time>
      </trkpt>
      <trkpt lat="44.35281" lon="2.57905">
        <ele>590</ele>
        <time>2011-12-27T10:35:37.000Z</time>
      </trkpt>
      <trkpt lat="44.35274" lon="2.57904">
        <ele>591.59997558594</ele>
        <time>2011-12-27T10:35:43.000Z</time>
      </trkpt>
      <trkpt lat="44.35268" lon="2.579">
        <ele>594.20001220703</ele>
        <time>2011-12-27T10:35:48.000Z</time>
      </trkpt>
      <trkpt lat="44.35265" lon="2.57895">
        <ele>596.59997558594</ele>
        <time>2011-12-27T10:35:51.000Z</time>
      </trkpt>
      <trkpt lat="44.35264" lon="2.57889">
        <ele>598.40002441406</ele>
        <time>2011-12-27T10:35:54.000Z</time>
      </trkpt>
      <trkpt lat="44.3526" lon="2.57884">
        <ele>601.20001220703</ele>
        <time>2011-12-27T10:35:59.000Z</time>
      </trkpt>
      <trkpt lat="44.35259" lon="2.57883">
        <ele>601.40002441406</ele>
        <time>2011-12-27T10:36:01.000Z</time>
      </trkpt>
      <trkpt lat="44.35257" lon="2.57881">
        <ele>602.59997558594</ele>
        <time>2011-12-27T10:36:05.000Z</time>
      </trkpt>
      <trkpt lat="44.35256" lon="2.57879">
        <ele>603.59997558594</ele>
        <time>2011-12-27T10:36:07.000Z</time>
      </trkpt>
      <trkpt lat="44.35255" lon="2.57876">
        <ele>604.59997558594</ele>
        <time>2011-12-27T10:36:09.000Z</time>
      </trkpt>
      <trkpt lat="44.35255" lon="2.57874">
        <ele>605.40002441406</ele>
        <time>2011-12-27T10:36:12.000Z</time>
      </trkpt>
      <trkpt lat="44.35251" lon="2.57866">
        <ele>608.59997558594</ele>
        <time>2011-12-27T10:36:20.000Z</time>
      </trkpt>
      <trkpt lat="44.35248" lon="2.57862">
        <ele>610.79998779297</ele>
        <time>2011-12-27T10:36:26.000Z</time>
      </trkpt>
      <trkpt lat="44.35245" lon="2.5786">
        <ele>611.79998779297</ele>
        <time>2011-12-27T10:36:29.000Z</time>
      </trkpt>
      <trkpt lat="44.35244" lon="2.57858">
        <ele>612.59997558594</ele>
        <time>2011-12-27T10:36:32.000Z</time>
      </trkpt>
      <trkpt lat="44.35243" lon="2.57855">
        <ele>613.59997558594</ele>
        <time>2011-12-27T10:36:37.000Z</time>
      </trkpt>
      <trkpt lat="44.35243" lon="2.57855">
        <ele>613.79998779297</ele>
        <time>2011-12-27T10:36:38.000Z</time>
      </trkpt>
      <trkpt lat="44.35241" lon="2.57856">
        <ele>613.59997558594</ele>
        <time>2011-12-27T10:36:40.000Z</time>
      </trkpt>
      <trkpt lat="44.35241" lon="2.57855">
        <ele>614</ele>
        <time>2011-12-27T10:36:41.000Z</time>
      </trkpt>
      <trkpt lat="44.3524" lon="2.57853">
        <ele>614.59997558594</ele>
        <time>2011-12-27T10:36:47.000Z</time>
      </trkpt>
      <trkpt lat="44.35244" lon="2.57851">
        <ele>614.79998779297</ele>
        <time>2011-12-27T10:36:53.000Z</time>
      </trkpt>
      <trkpt lat="44.35249" lon="2.57847">
        <ele>615.40002441406</ele>
        <time>2011-12-27T10:36:59.000Z</time>
      </trkpt>
      <trkpt lat="44.35254" lon="2.57844">
        <ele>615.79998779297</ele>
        <time>2011-12-27T10:37:06.000Z</time>
      </trkpt>
      <trkpt lat="44.35257" lon="2.57839">
        <ele>616.79998779297</ele>
        <time>2011-12-27T10:37:11.000Z</time>
      </trkpt>
      <trkpt lat="44.35255" lon="2.5784">
        <ele>616.79998779297</ele>
        <time>2011-12-27T10:37:13.000Z</time>
      </trkpt>
      <trkpt lat="44.35253" lon="2.5784">
        <ele>617.40002441406</ele>
        <time>2011-12-27T10:37:19.000Z</time>
      </trkpt>
      <trkpt lat="44.35249" lon="2.5784">
        <ele>617.79998779297</ele>
        <time>2011-12-27T10:37:23.000Z</time>
      </trkpt>
      <trkpt lat="44.35245" lon="2.57835">
        <ele>620</ele>
        <time>2011-12-27T10:37:31.000Z</time>
      </trkpt>
      <trkpt lat="44.35241" lon="2.5783">
        <ele>621.40002441406</ele>
        <time>2011-12-27T10:37:36.000Z</time>
      </trkpt>
      <trkpt lat="44.35247" lon="2.57824">
        <ele>621.79998779297</ele>
        <time>2011-12-27T10:37:40.000Z</time>
      </trkpt>
      <trkpt lat="44.35247" lon="2.57822">
        <ele>622.20001220703</ele>
        <time>2011-12-27T10:37:42.000Z</time>
      </trkpt>
      <trkpt lat="44.35252" lon="2.5782">
        <ele>622</ele>
        <time>2011-12-27T10:37:44.000Z</time>
      </trkpt>
      <trkpt lat="44.35257" lon="2.57817">
        <ele>621.40002441406</ele>
        <time>2011-12-27T10:37:46.000Z</time>
      </trkpt>
      <trkpt lat="44.35261" lon="2.57816">
        <ele>620.79998779297</ele>
        <time>2011-12-27T10:37:48.000Z</time>
      </trkpt>
      <trkpt lat="44.35262" lon="2.57814">
        <ele>621</ele>
        <time>2011-12-27T10:37:50.000Z</time>
      </trkpt>
      <trkpt lat="44.35256" lon="2.57812">
        <ele>622.40002441406</ele>
        <time>2011-12-27T10:37:53.000Z</time>
      </trkpt>
      <trkpt lat="44.35253" lon="2.57811">
        <ele>623.20001220703</ele>
        <time>2011-12-27T10:37:55.000Z</time>
      </trkpt>
      <trkpt lat="44.35252" lon="2.5781">
        <ele>623.59997558594</ele>
        <time>2011-12-27T10:37:56.000Z</time>
      </trkpt>
      <trkpt lat="44.35248" lon="2.57809">
        <ele>624.20001220703</ele>
        <time>2011-12-27T10:37:59.000Z</time>
      </trkpt>
      <trkpt lat="44.35245" lon="2.57809">
        <ele>624.59997558594</ele>
        <time>2011-12-27T10:38:01.000Z</time>
      </trkpt>
      <trkpt lat="44.35243" lon="2.57807">
        <ele>625</ele>
        <time>2011-12-27T10:38:04.000Z</time>
      </trkpt>
      <trkpt lat="44.35244" lon="2.57803">
        <ele>625.59997558594</ele>
        <time>2011-12-27T10:38:08.000Z</time>
      </trkpt>
      <trkpt lat="44.35245" lon="2.57801">
        <ele>625.79998779297</ele>
        <time>2011-12-27T10:38:09.000Z</time>
      </trkpt>
      <trkpt lat="44.35241" lon="2.57793">
        <ele>627.40002441406</ele>
        <time>2011-12-27T10:38:14.000Z</time>
      </trkpt>
      <trkpt lat="44.35238" lon="2.5779">
        <ele>628.20001220703</ele>
        <time>2011-12-27T10:38:17.000Z</time>
      </trkpt>
      <trkpt lat="44.35237" lon="2.57789">
        <ele>628.40002441406</ele>
        <time>2011-12-27T10:38:18.000Z</time>
      </trkpt>
      <trkpt lat="44.3524" lon="2.57781">
        <ele>629.40002441406</ele>
        <time>2011-12-27T10:38:24.000Z</time>
      </trkpt>
      <trkpt lat="44.35248" lon="2.57774">
        <ele>630</ele>
        <time>2011-12-27T10:38:28.000Z</time>
      </trkpt>
      <trkpt lat="44.35254" lon="2.57771">
        <ele>629.79998779297</ele>
        <time>2011-12-27T10:38:32.000Z</time>
      </trkpt>
      <trkpt lat="44.35256" lon="2.5777">
        <ele>629.40002441406</ele>
        <time>2011-12-27T10:38:33.000Z</time>
      </trkpt>
      <trkpt lat="44.35272" lon="2.5776">
        <ele>628</ele>
        <time>2011-12-27T10:38:39.000Z</time>
      </trkpt>
      <trkpt lat="44.35286" lon="2.57746">
        <ele>627.40002441406</ele>
        <time>2011-12-27T10:38:45.000Z</time>
      </trkpt>
      <trkpt lat="44.35293" lon="2.57737">
        <ele>626.59997558594</ele>
        <time>2011-12-27T10:38:49.000Z</time>
      </trkpt>
      <trkpt lat="44.35297" lon="2.5773">
        <ele>626.40002441406</ele>
        <time>2011-12-27T10:38:52.000Z</time>
      </trkpt>
      <trkpt lat="44.3531" lon="2.57711">
        <ele>625.40002441406</ele>
        <time>2011-12-27T10:39:00.000Z</time>
      </trkpt>
      <trkpt lat="44.35313" lon="2.57701">
        <ele>625.59997558594</ele>
        <time>2011-12-27T10:39:03.000Z</time>
      </trkpt>
      <trkpt lat="44.35316" lon="2.57694">
        <ele>625.59997558594</ele>
        <time>2011-12-27T10:39:05.000Z</time>
      </trkpt>
      <trkpt lat="44.35326" lon="2.5767">
        <ele>626</ele>
        <time>2011-12-27T10:39:12.000Z</time>
      </trkpt>
      <trkpt lat="44.35334" lon="2.57651">
        <ele>625.59997558594</ele>
        <time>2011-12-27T10:39:17.000Z</time>
      </trkpt>
      <trkpt lat="44.35338" lon="2.57632">
        <ele>625.79998779297</ele>
        <time>2011-12-27T10:39:22.000Z</time>
      </trkpt>
      <trkpt lat="44.35339" lon="2.57618">
        <ele>626.40002441406</ele>
        <time>2011-12-27T10:39:26.000Z</time>
      </trkpt>
      <trkpt lat="44.3534" lon="2.57598">
        <ele>627</ele>
        <time>2011-12-27T10:39:32.000Z</time>
      </trkpt>
      <trkpt lat="44.35342" lon="2.57583">
        <ele>627.40002441406</ele>
        <time>2011-12-27T10:39:37.000Z</time>
      </trkpt>
      <trkpt lat="44.35351" lon="2.57564">
        <ele>626.20001220703</ele>
        <time>2011-12-27T10:39:42.000Z</time>
      </trkpt>
      <trkpt lat="44.35357" lon="2.57545">
        <ele>625.79998779297</ele>
        <time>2011-12-27T10:39:47.000Z</time>
      </trkpt>
      <trkpt lat="44.35357" lon="2.57524">
        <ele>626.40002441406</ele>
        <time>2011-12-27T10:39:53.000Z</time>
      </trkpt>
      <trkpt lat="44.35358" lon="2.57509">
        <ele>626.79998779297</ele>
        <time>2011-12-27T10:39:57.000Z</time>
      </trkpt>
      <trkpt lat="44.3536" lon="2.57492">
        <ele>626.40002441406</ele>
        <time>2011-12-27T10:40:02.000Z</time>
      </trkpt>
      <trkpt lat="44.35364" lon="2.57478">
        <ele>625.40002441406</ele>
        <time>2011-12-27T10:40:07.000Z</time>
      </trkpt>
      <trkpt lat="44.35355" lon="2.57462">
        <ele>626</ele>
        <time>2011-12-27T10:40:12.000Z</time>
      </trkpt>
      <trkpt lat="44.35339" lon="2.57452">
        <ele>627.79998779297</ele>
        <time>2011-12-27T10:40:18.000Z</time>
      </trkpt>
      <trkpt lat="44.35328" lon="2.57443">
        <ele>628.59997558594</ele>
        <time>2011-12-27T10:40:22.000Z</time>
      </trkpt>
      <trkpt lat="44.35314" lon="2.57436">
        <ele>629.40002441406</ele>
        <time>2011-12-27T10:40:27.000Z</time>
      </trkpt>
      <trkpt lat="44.35301" lon="2.57431">
        <ele>630</ele>
        <time>2011-12-27T10:40:32.000Z</time>
      </trkpt>
      <trkpt lat="44.35294" lon="2.57428">
        <ele>630.40002441406</ele>
        <time>2011-12-27T10:40:37.000Z</time>
      </trkpt>
    </trkseg>
  </trk>
</gpx>